<?xml version="1.0" encoding="UTF-8" standalone="no" ?>
<gpx xmlns="http://www.topografix.com/GPX/1/1" xmlns:xsi="http://www.w3.org/2001/XMLSchema-instance" xsi:schemaLocation="http://www.topografix.com/GPX/1/1 http://www.topografix.com/GPX/1/1/gpx.xsd" version="1.1" creator="VisuGPX - https://www.visugpx.com">
  <metadata>
    <name>Randonnée du 26-02-2017  - Corronsac 12.3Km</name>
    <desc><![CDATA[Randonnée du 26-02-2017  -Boucle  Corronsac (31) ;Monbrun Lauragais; Corronsac]]></desc>
  </metadata>
  <trk>
    <name><![CDATA[Rando Corronsac 26Jan17]]></name>
    <desc><![CDATA[26 févr. 2017  9:16 am]]></desc>
    <trkseg>
      <trkpt lat="43.47335" lon="1.49736">
        <ele>248.369</ele>
        <time>2017-02-26T08:16:42.238Z</time>
      </trkpt>
      <trkpt lat="43.47335" lon="1.49736">
        <ele>248.29</ele>
        <time>2017-02-26T08:16:55.629Z</time>
      </trkpt>
      <trkpt lat="43.47332" lon="1.49711">
        <ele>248.068</ele>
        <time>2017-02-26T08:17:20.321Z</time>
      </trkpt>
      <trkpt lat="43.47332" lon="1.4971">
        <ele>247.253</ele>
        <time>2017-02-26T08:17:21.248Z</time>
      </trkpt>
      <trkpt lat="43.47331" lon="1.49698">
        <ele>245.783</ele>
        <time>2017-02-26T08:17:30.868Z</time>
      </trkpt>
      <trkpt lat="43.47333" lon="1.49686">
        <ele>244.394</ele>
        <time>2017-02-26T08:17:41.135Z</time>
      </trkpt>
      <trkpt lat="43.47336" lon="1.49673">
        <ele>243.574</ele>
        <time>2017-02-26T08:17:52.529Z</time>
      </trkpt>
      <trkpt lat="43.47338" lon="1.49661">
        <ele>243.138</ele>
        <time>2017-02-26T08:18:03.648Z</time>
      </trkpt>
      <trkpt lat="43.47341" lon="1.49648">
        <ele>242.836</ele>
        <time>2017-02-26T08:18:13.554Z</time>
      </trkpt>
      <trkpt lat="43.47342" lon="1.49635">
        <ele>242.523</ele>
        <time>2017-02-26T08:18:22.810Z</time>
      </trkpt>
      <trkpt lat="43.47346" lon="1.49623">
        <ele>242.186</ele>
        <time>2017-02-26T08:18:33.256Z</time>
      </trkpt>
      <trkpt lat="43.47349" lon="1.49611">
        <ele>241.836</ele>
        <time>2017-02-26T08:18:43.802Z</time>
      </trkpt>
      <trkpt lat="43.47351" lon="1.49597">
        <ele>241.529</ele>
        <time>2017-02-26T08:18:53.873Z</time>
      </trkpt>
      <trkpt lat="43.47351" lon="1.49584">
        <ele>241.318</ele>
        <time>2017-02-26T08:19:02.247Z</time>
      </trkpt>
      <trkpt lat="43.47351" lon="1.49571">
        <ele>241.102</ele>
        <time>2017-02-26T08:19:09.574Z</time>
      </trkpt>
      <trkpt lat="43.47351" lon="1.49558">
        <ele>240.792</ele>
        <time>2017-02-26T08:19:16.701Z</time>
      </trkpt>
      <trkpt lat="43.4735" lon="1.49546">
        <ele>240.439</ele>
        <time>2017-02-26T08:19:23.766Z</time>
      </trkpt>
      <trkpt lat="43.47348" lon="1.49533">
        <ele>240.053</ele>
        <time>2017-02-26T08:19:31.364Z</time>
      </trkpt>
      <trkpt lat="43.47349" lon="1.4952">
        <ele>239.575</ele>
        <time>2017-02-26T08:19:40.606Z</time>
      </trkpt>
      <trkpt lat="43.47346" lon="1.49508">
        <ele>239.012</ele>
        <time>2017-02-26T08:19:49.126Z</time>
      </trkpt>
      <trkpt lat="43.47342" lon="1.49496">
        <ele>238.481</ele>
        <time>2017-02-26T08:19:56.317Z</time>
      </trkpt>
      <trkpt lat="43.47338" lon="1.49484">
        <ele>238.053</ele>
        <time>2017-02-26T08:20:04.367Z</time>
      </trkpt>
      <trkpt lat="43.47331" lon="1.49475">
        <ele>237.653</ele>
        <time>2017-02-26T08:20:12.873Z</time>
      </trkpt>
      <trkpt lat="43.47325" lon="1.49485">
        <ele>237.129</ele>
        <time>2017-02-26T08:20:21.019Z</time>
      </trkpt>
      <trkpt lat="43.47323" lon="1.49497">
        <ele>236.43</ele>
        <time>2017-02-26T08:20:30.298Z</time>
      </trkpt>
      <trkpt lat="43.47323" lon="1.4951">
        <ele>235.695</ele>
        <time>2017-02-26T08:20:42.321Z</time>
      </trkpt>
      <trkpt lat="43.47315" lon="1.49518">
        <ele>235.059</ele>
        <time>2017-02-26T08:20:57.200Z</time>
      </trkpt>
      <trkpt lat="43.47306" lon="1.49523">
        <ele>234.343</ele>
        <time>2017-02-26T08:21:10.615Z</time>
      </trkpt>
      <trkpt lat="43.47298" lon="1.4953">
        <ele>233.14</ele>
        <time>2017-02-26T08:21:19.804Z</time>
      </trkpt>
      <trkpt lat="43.4729" lon="1.49537">
        <ele>231.393</ele>
        <time>2017-02-26T08:21:29.156Z</time>
      </trkpt>
      <trkpt lat="43.47283" lon="1.49545">
        <ele>229.514</ele>
        <time>2017-02-26T08:21:38.923Z</time>
      </trkpt>
      <trkpt lat="43.47276" lon="1.49553">
        <ele>227.732</ele>
        <time>2017-02-26T08:21:49.203Z</time>
      </trkpt>
      <trkpt lat="43.47269" lon="1.49562">
        <ele>225.862</ele>
        <time>2017-02-26T08:21:57.327Z</time>
      </trkpt>
      <trkpt lat="43.4726" lon="1.49568">
        <ele>223.857</ele>
        <time>2017-02-26T08:22:04.595Z</time>
      </trkpt>
      <trkpt lat="43.47251" lon="1.49571">
        <ele>222.01</ele>
        <time>2017-02-26T08:22:11.283Z</time>
      </trkpt>
      <trkpt lat="43.47242" lon="1.49572">
        <ele>220.522</ele>
        <time>2017-02-26T08:22:18.139Z</time>
      </trkpt>
      <trkpt lat="43.47232" lon="1.49569">
        <ele>219.282</ele>
        <time>2017-02-26T08:22:25.923Z</time>
      </trkpt>
      <trkpt lat="43.47223" lon="1.49571">
        <ele>218.073</ele>
        <time>2017-02-26T08:22:33.859Z</time>
      </trkpt>
      <trkpt lat="43.47214" lon="1.49568">
        <ele>216.731</ele>
        <time>2017-02-26T08:22:41.687Z</time>
      </trkpt>
      <trkpt lat="43.47205" lon="1.49567">
        <ele>215.25</ele>
        <time>2017-02-26T08:22:50.395Z</time>
      </trkpt>
      <trkpt lat="43.47196" lon="1.49564">
        <ele>213.679</ele>
        <time>2017-02-26T08:22:59.510Z</time>
      </trkpt>
      <trkpt lat="43.47187" lon="1.49562">
        <ele>212.034</ele>
        <time>2017-02-26T08:23:08.369Z</time>
      </trkpt>
      <trkpt lat="43.47177" lon="1.49561">
        <ele>210.366</ele>
        <time>2017-02-26T08:23:18.221Z</time>
      </trkpt>
      <trkpt lat="43.47168" lon="1.49556">
        <ele>208.731</ele>
        <time>2017-02-26T08:23:27.737Z</time>
      </trkpt>
      <trkpt lat="43.47159" lon="1.49552">
        <ele>207.157</ele>
        <time>2017-02-26T08:23:36.793Z</time>
      </trkpt>
      <trkpt lat="43.4715" lon="1.49548">
        <ele>205.636</ele>
        <time>2017-02-26T08:23:45.911Z</time>
      </trkpt>
      <trkpt lat="43.47142" lon="1.49542">
        <ele>204.18</ele>
        <time>2017-02-26T08:23:53.777Z</time>
      </trkpt>
      <trkpt lat="43.47133" lon="1.49539">
        <ele>202.936</ele>
        <time>2017-02-26T08:24:01.490Z</time>
      </trkpt>
      <trkpt lat="43.47124" lon="1.49534">
        <ele>202.05</ele>
        <time>2017-02-26T08:24:08.863Z</time>
      </trkpt>
      <trkpt lat="43.47114" lon="1.49534">
        <ele>201.57</ele>
        <time>2017-02-26T08:24:16.652Z</time>
      </trkpt>
      <trkpt lat="43.47105" lon="1.49536">
        <ele>201.527</ele>
        <time>2017-02-26T08:24:25.000Z</time>
      </trkpt>
      <trkpt lat="43.47105" lon="1.49536">
        <ele>201.82</ele>
        <time>2017-02-26T08:24:27.000Z</time>
      </trkpt>
      <trkpt lat="43.47105" lon="1.49536">
        <ele>202.057</ele>
        <time>2017-02-26T08:24:32.359Z</time>
      </trkpt>
      <trkpt lat="43.47102" lon="1.49523">
        <ele>201.743</ele>
        <time>2017-02-26T08:24:56.129Z</time>
      </trkpt>
      <trkpt lat="43.47108" lon="1.49512">
        <ele>201.742</ele>
        <time>2017-02-26T08:25:04.314Z</time>
      </trkpt>
      <trkpt lat="43.47112" lon="1.495">
        <ele>202.078</ele>
        <time>2017-02-26T08:25:11.790Z</time>
      </trkpt>
      <trkpt lat="43.47116" lon="1.49489">
        <ele>202.43</ele>
        <time>2017-02-26T08:25:19.488Z</time>
      </trkpt>
      <trkpt lat="43.47122" lon="1.49478">
        <ele>202.509</ele>
        <time>2017-02-26T08:25:28.188Z</time>
      </trkpt>
      <trkpt lat="43.47127" lon="1.49467">
        <ele>202.397</ele>
        <time>2017-02-26T08:25:35.327Z</time>
      </trkpt>
      <trkpt lat="43.47128" lon="1.49453">
        <ele>202.245</ele>
        <time>2017-02-26T08:25:42.769Z</time>
      </trkpt>
      <trkpt lat="43.4713" lon="1.4944">
        <ele>202.165</ele>
        <time>2017-02-26T08:25:49.547Z</time>
      </trkpt>
      <trkpt lat="43.47132" lon="1.49428">
        <ele>202.203</ele>
        <time>2017-02-26T08:25:56.687Z</time>
      </trkpt>
      <trkpt lat="43.47134" lon="1.49415">
        <ele>202.333</ele>
        <time>2017-02-26T08:26:04.297Z</time>
      </trkpt>
      <trkpt lat="43.47139" lon="1.49403">
        <ele>202.507</ele>
        <time>2017-02-26T08:26:14.194Z</time>
      </trkpt>
      <trkpt lat="43.47142" lon="1.49391">
        <ele>202.66</ele>
        <time>2017-02-26T08:26:22.394Z</time>
      </trkpt>
      <trkpt lat="43.47141" lon="1.49378">
        <ele>202.708</ele>
        <time>2017-02-26T08:26:30.614Z</time>
      </trkpt>
      <trkpt lat="43.47146" lon="1.49367">
        <ele>202.627</ele>
        <time>2017-02-26T08:26:38.739Z</time>
      </trkpt>
      <trkpt lat="43.47149" lon="1.49354">
        <ele>202.465</ele>
        <time>2017-02-26T08:26:46.674Z</time>
      </trkpt>
      <trkpt lat="43.47152" lon="1.49342">
        <ele>202.303</ele>
        <time>2017-02-26T08:26:54.000Z</time>
      </trkpt>
      <trkpt lat="43.47152" lon="1.49342">
        <ele>202.19</ele>
        <time>2017-02-26T08:26:58.000Z</time>
      </trkpt>
      <trkpt lat="43.47152" lon="1.49342">
        <ele>202.121</ele>
        <time>2017-02-26T08:27:03.932Z</time>
      </trkpt>
      <trkpt lat="43.47149" lon="1.4933">
        <ele>202.006</ele>
        <time>2017-02-26T08:27:31.149Z</time>
      </trkpt>
      <trkpt lat="43.47156" lon="1.4932">
        <ele>201.928</ele>
        <time>2017-02-26T08:27:40.861Z</time>
      </trkpt>
      <trkpt lat="43.47163" lon="1.49312">
        <ele>201.789</ele>
        <time>2017-02-26T08:27:48.912Z</time>
      </trkpt>
      <trkpt lat="43.4717" lon="1.49301">
        <ele>201.583</ele>
        <time>2017-02-26T08:27:56.946Z</time>
      </trkpt>
      <trkpt lat="43.47173" lon="1.49289">
        <ele>201.37</ele>
        <time>2017-02-26T08:28:04.896Z</time>
      </trkpt>
      <trkpt lat="43.47178" lon="1.49278">
        <ele>201.205</ele>
        <time>2017-02-26T08:28:15.046Z</time>
      </trkpt>
      <trkpt lat="43.47176" lon="1.49264">
        <ele>201.094</ele>
        <time>2017-02-26T08:28:26.267Z</time>
      </trkpt>
      <trkpt lat="43.47183" lon="1.49254">
        <ele>200.985</ele>
        <time>2017-02-26T08:28:34.673Z</time>
      </trkpt>
      <trkpt lat="43.47189" lon="1.49244">
        <ele>200.86</ele>
        <time>2017-02-26T08:28:41.743Z</time>
      </trkpt>
      <trkpt lat="43.47195" lon="1.49233">
        <ele>200.773</ele>
        <time>2017-02-26T08:28:49.499Z</time>
      </trkpt>
      <trkpt lat="43.47201" lon="1.49223">
        <ele>200.764</ele>
        <time>2017-02-26T08:28:57.095Z</time>
      </trkpt>
      <trkpt lat="43.47206" lon="1.49212">
        <ele>200.808</ele>
        <time>2017-02-26T08:29:05.874Z</time>
      </trkpt>
      <trkpt lat="43.47208" lon="1.49199">
        <ele>200.917</ele>
        <time>2017-02-26T08:29:14.232Z</time>
      </trkpt>
      <trkpt lat="43.47212" lon="1.49188">
        <ele>201.095</ele>
        <time>2017-02-26T08:29:21.717Z</time>
      </trkpt>
      <trkpt lat="43.47216" lon="1.49174">
        <ele>201.259</ele>
        <time>2017-02-26T08:29:29.737Z</time>
      </trkpt>
      <trkpt lat="43.47217" lon="1.49161">
        <ele>201.324</ele>
        <time>2017-02-26T08:29:36.987Z</time>
      </trkpt>
      <trkpt lat="43.47216" lon="1.49147">
        <ele>201.278</ele>
        <time>2017-02-26T08:29:46.005Z</time>
      </trkpt>
      <trkpt lat="43.47217" lon="1.49134">
        <ele>201.146</ele>
        <time>2017-02-26T08:29:56.118Z</time>
      </trkpt>
      <trkpt lat="43.47218" lon="1.49122">
        <ele>200.989</ele>
        <time>2017-02-26T08:30:07.350Z</time>
      </trkpt>
      <trkpt lat="43.47212" lon="1.49112">
        <ele>200.879</ele>
        <time>2017-02-26T08:30:15.476Z</time>
      </trkpt>
      <trkpt lat="43.47204" lon="1.49104">
        <ele>200.843</ele>
        <time>2017-02-26T08:30:23.493Z</time>
      </trkpt>
      <trkpt lat="43.47195" lon="1.49101">
        <ele>200.848</ele>
        <time>2017-02-26T08:30:31.819Z</time>
      </trkpt>
      <trkpt lat="43.47185" lon="1.491">
        <ele>200.899</ele>
        <time>2017-02-26T08:30:40.235Z</time>
      </trkpt>
      <trkpt lat="43.47175" lon="1.49097">
        <ele>201.189</ele>
        <time>2017-02-26T08:30:48.114Z</time>
      </trkpt>
      <trkpt lat="43.47166" lon="1.49096">
        <ele>201.839</ele>
        <time>2017-02-26T08:30:55.516Z</time>
      </trkpt>
      <trkpt lat="43.47157" lon="1.49094">
        <ele>202.657</ele>
        <time>2017-02-26T08:31:03.793Z</time>
      </trkpt>
      <trkpt lat="43.47147" lon="1.4909">
        <ele>203.435</ele>
        <time>2017-02-26T08:31:12.494Z</time>
      </trkpt>
      <trkpt lat="43.47138" lon="1.49087">
        <ele>204.147</ele>
        <time>2017-02-26T08:31:21.002Z</time>
      </trkpt>
      <trkpt lat="43.47129" lon="1.49082">
        <ele>204.829</ele>
        <time>2017-02-26T08:31:30.757Z</time>
      </trkpt>
      <trkpt lat="43.4712" lon="1.49077">
        <ele>205.551</ele>
        <time>2017-02-26T08:31:41.172Z</time>
      </trkpt>
      <trkpt lat="43.47111" lon="1.49074">
        <ele>206.393</ele>
        <time>2017-02-26T08:31:49.279Z</time>
      </trkpt>
      <trkpt lat="43.47102" lon="1.49077">
        <ele>207.371</ele>
        <time>2017-02-26T08:31:56.500Z</time>
      </trkpt>
      <trkpt lat="43.47092" lon="1.49078">
        <ele>208.35</ele>
        <time>2017-02-26T08:32:04.001Z</time>
      </trkpt>
      <trkpt lat="43.47082" lon="1.49078">
        <ele>209.185</ele>
        <time>2017-02-26T08:32:11.145Z</time>
      </trkpt>
      <trkpt lat="43.47073" lon="1.49076">
        <ele>209.832</ele>
        <time>2017-02-26T08:32:18.737Z</time>
      </trkpt>
      <trkpt lat="43.47064" lon="1.49076">
        <ele>210.32</ele>
        <time>2017-02-26T08:32:27.197Z</time>
      </trkpt>
      <trkpt lat="43.47054" lon="1.49074">
        <ele>210.777</ele>
        <time>2017-02-26T08:32:34.959Z</time>
      </trkpt>
      <trkpt lat="43.47045" lon="1.49072">
        <ele>211.345</ele>
        <time>2017-02-26T08:32:41.922Z</time>
      </trkpt>
      <trkpt lat="43.47035" lon="1.49072">
        <ele>211.95</ele>
        <time>2017-02-26T08:32:49.600Z</time>
      </trkpt>
      <trkpt lat="43.47025" lon="1.49072">
        <ele>212.396</ele>
        <time>2017-02-26T08:32:58.214Z</time>
      </trkpt>
      <trkpt lat="43.47015" lon="1.49072">
        <ele>212.735</ele>
        <time>2017-02-26T08:33:06.941Z</time>
      </trkpt>
      <trkpt lat="43.47006" lon="1.49075">
        <ele>213.215</ele>
        <time>2017-02-26T08:33:15.337Z</time>
      </trkpt>
      <trkpt lat="43.46996" lon="1.49074">
        <ele>213.945</ele>
        <time>2017-02-26T08:33:23.083Z</time>
      </trkpt>
      <trkpt lat="43.46987" lon="1.49071">
        <ele>214.829</ele>
        <time>2017-02-26T08:33:31.185Z</time>
      </trkpt>
      <trkpt lat="43.46979" lon="1.49066">
        <ele>215.67</ele>
        <time>2017-02-26T08:33:39.636Z</time>
      </trkpt>
      <trkpt lat="43.46972" lon="1.49075">
        <ele>216.437</ele>
        <time>2017-02-26T08:33:48.474Z</time>
      </trkpt>
      <trkpt lat="43.46964" lon="1.49072">
        <ele>217.245</ele>
        <time>2017-02-26T08:33:56.635Z</time>
      </trkpt>
      <trkpt lat="43.46954" lon="1.49074">
        <ele>218.026</ele>
        <time>2017-02-26T08:34:04.094Z</time>
      </trkpt>
      <trkpt lat="43.46944" lon="1.49075">
        <ele>218.664</ele>
        <time>2017-02-26T08:34:12.019Z</time>
      </trkpt>
      <trkpt lat="43.46935" lon="1.49073">
        <ele>219.233</ele>
        <time>2017-02-26T08:34:20.540Z</time>
      </trkpt>
      <trkpt lat="43.46926" lon="1.49071">
        <ele>219.831</ele>
        <time>2017-02-26T08:34:29.175Z</time>
      </trkpt>
      <trkpt lat="43.46917" lon="1.49072">
        <ele>220.503</ele>
        <time>2017-02-26T08:34:37.314Z</time>
      </trkpt>
      <trkpt lat="43.46907" lon="1.49067">
        <ele>221.271</ele>
        <time>2017-02-26T08:34:45.419Z</time>
      </trkpt>
      <trkpt lat="43.46899" lon="1.49062">
        <ele>222.141</ele>
        <time>2017-02-26T08:34:54.032Z</time>
      </trkpt>
      <trkpt lat="43.46889" lon="1.49056">
        <ele>223.075</ele>
        <time>2017-02-26T08:35:04.137Z</time>
      </trkpt>
      <trkpt lat="43.4688" lon="1.49055">
        <ele>224.036</ele>
        <time>2017-02-26T08:35:13.325Z</time>
      </trkpt>
      <trkpt lat="43.46871" lon="1.49049">
        <ele>225.026</ele>
        <time>2017-02-26T08:35:23.628Z</time>
      </trkpt>
      <trkpt lat="43.46862" lon="1.49046">
        <ele>226.012</ele>
        <time>2017-02-26T08:35:34.933Z</time>
      </trkpt>
      <trkpt lat="43.46852" lon="1.49043">
        <ele>226.926</ele>
        <time>2017-02-26T08:35:45.747Z</time>
      </trkpt>
      <trkpt lat="43.46843" lon="1.4904">
        <ele>227.781</ele>
        <time>2017-02-26T08:35:56.179Z</time>
      </trkpt>
      <trkpt lat="43.46834" lon="1.49037">
        <ele>228.656</ele>
        <time>2017-02-26T08:36:07.138Z</time>
      </trkpt>
      <trkpt lat="43.46826" lon="1.49032">
        <ele>229.722</ele>
        <time>2017-02-26T08:36:16.680Z</time>
      </trkpt>
      <trkpt lat="43.46816" lon="1.49027">
        <ele>231.001</ele>
        <time>2017-02-26T08:36:26.509Z</time>
      </trkpt>
      <trkpt lat="43.46807" lon="1.49021">
        <ele>232.355</ele>
        <time>2017-02-26T08:36:37.385Z</time>
      </trkpt>
      <trkpt lat="43.46798" lon="1.4902">
        <ele>233.686</ele>
        <time>2017-02-26T08:36:46.932Z</time>
      </trkpt>
      <trkpt lat="43.46789" lon="1.49014">
        <ele>234.983</ele>
        <time>2017-02-26T08:36:56.201Z</time>
      </trkpt>
      <trkpt lat="43.4678" lon="1.49009">
        <ele>236.239</ele>
        <time>2017-02-26T08:37:06.393Z</time>
      </trkpt>
      <trkpt lat="43.46772" lon="1.49003">
        <ele>237.506</ele>
        <time>2017-02-26T08:37:16.854Z</time>
      </trkpt>
      <trkpt lat="43.46763" lon="1.48998">
        <ele>238.852</ele>
        <time>2017-02-26T08:37:27.084Z</time>
      </trkpt>
      <trkpt lat="43.46756" lon="1.4899">
        <ele>240.327</ele>
        <time>2017-02-26T08:37:39.381Z</time>
      </trkpt>
      <trkpt lat="43.46747" lon="1.48987">
        <ele>241.981</ele>
        <time>2017-02-26T08:37:52.004Z</time>
      </trkpt>
      <trkpt lat="43.46739" lon="1.48981">
        <ele>243.857</ele>
        <time>2017-02-26T08:38:01.334Z</time>
      </trkpt>
      <trkpt lat="43.46729" lon="1.48983">
        <ele>245.753</ele>
        <time>2017-02-26T08:38:08.128Z</time>
      </trkpt>
      <trkpt lat="43.46719" lon="1.48985">
        <ele>247.309</ele>
        <time>2017-02-26T08:38:15.229Z</time>
      </trkpt>
      <trkpt lat="43.46709" lon="1.48984">
        <ele>248.269</ele>
        <time>2017-02-26T08:38:23.400Z</time>
      </trkpt>
      <trkpt lat="43.46701" lon="1.48979">
        <ele>248.625</ele>
        <time>2017-02-26T08:38:31.941Z</time>
      </trkpt>
      <trkpt lat="43.46691" lon="1.48983">
        <ele>248.555</ele>
        <time>2017-02-26T08:38:42.073Z</time>
      </trkpt>
      <trkpt lat="43.46683" lon="1.4899">
        <ele>248.287</ele>
        <time>2017-02-26T08:38:51.458Z</time>
      </trkpt>
      <trkpt lat="43.46674" lon="1.48993">
        <ele>247.885</ele>
        <time>2017-02-26T08:38:59.808Z</time>
      </trkpt>
      <trkpt lat="43.46664" lon="1.48995">
        <ele>247.349</ele>
        <time>2017-02-26T08:39:08.366Z</time>
      </trkpt>
      <trkpt lat="43.46656" lon="1.49">
        <ele>246.845</ele>
        <time>2017-02-26T08:39:16.041Z</time>
      </trkpt>
      <trkpt lat="43.46646" lon="1.49003">
        <ele>246.564</ele>
        <time>2017-02-26T08:39:24.040Z</time>
      </trkpt>
      <trkpt lat="43.46636" lon="1.49005">
        <ele>246.442</ele>
        <time>2017-02-26T08:39:32.488Z</time>
      </trkpt>
      <trkpt lat="43.46627" lon="1.49005">
        <ele>246.296</ele>
        <time>2017-02-26T08:39:41.715Z</time>
      </trkpt>
      <trkpt lat="43.46618" lon="1.49001">
        <ele>246.07</ele>
        <time>2017-02-26T08:39:54.344Z</time>
      </trkpt>
      <trkpt lat="43.46617" lon="1.48988">
        <ele>245.659</ele>
        <time>2017-02-26T08:40:04.951Z</time>
      </trkpt>
      <trkpt lat="43.46619" lon="1.48976">
        <ele>244.712</ele>
        <time>2017-02-26T08:40:13.707Z</time>
      </trkpt>
      <trkpt lat="43.46624" lon="1.48965">
        <ele>243.134</ele>
        <time>2017-02-26T08:40:22.732Z</time>
      </trkpt>
      <trkpt lat="43.46624" lon="1.48953">
        <ele>241.427</ele>
        <time>2017-02-26T08:40:32.530Z</time>
      </trkpt>
      <trkpt lat="43.46627" lon="1.4894">
        <ele>240.121</ele>
        <time>2017-02-26T08:40:41.367Z</time>
      </trkpt>
      <trkpt lat="43.46629" lon="1.48927">
        <ele>239.269</ele>
        <time>2017-02-26T08:40:49.102Z</time>
      </trkpt>
      <trkpt lat="43.46633" lon="1.48914">
        <ele>238.603</ele>
        <time>2017-02-26T08:40:58.155Z</time>
      </trkpt>
      <trkpt lat="43.46633" lon="1.48901">
        <ele>237.846</ele>
        <time>2017-02-26T08:41:09.303Z</time>
      </trkpt>
      <trkpt lat="43.46639" lon="1.48891">
        <ele>236.777</ele>
        <time>2017-02-26T08:41:20.609Z</time>
      </trkpt>
      <trkpt lat="43.46641" lon="1.48878">
        <ele>235.238</ele>
        <time>2017-02-26T08:41:29.536Z</time>
      </trkpt>
      <trkpt lat="43.4664" lon="1.48866">
        <ele>233.47</ele>
        <time>2017-02-26T08:41:37.047Z</time>
      </trkpt>
      <trkpt lat="43.46644" lon="1.48853">
        <ele>231.97</ele>
        <time>2017-02-26T08:41:45.129Z</time>
      </trkpt>
      <trkpt lat="43.46646" lon="1.4884">
        <ele>230.98</ele>
        <time>2017-02-26T08:41:53.808Z</time>
      </trkpt>
      <trkpt lat="43.46648" lon="1.48828">
        <ele>230.369</ele>
        <time>2017-02-26T08:42:02.610Z</time>
      </trkpt>
      <trkpt lat="43.46652" lon="1.48816">
        <ele>229.811</ele>
        <time>2017-02-26T08:42:13.856Z</time>
      </trkpt>
      <trkpt lat="43.46657" lon="1.48805">
        <ele>228.94</ele>
        <time>2017-02-26T08:42:25.536Z</time>
      </trkpt>
      <trkpt lat="43.46658" lon="1.48792">
        <ele>227.606</ele>
        <time>2017-02-26T08:42:36.719Z</time>
      </trkpt>
      <trkpt lat="43.46659" lon="1.48777">
        <ele>225.949</ele>
        <time>2017-02-26T08:42:48.705Z</time>
      </trkpt>
      <trkpt lat="43.46662" lon="1.48763">
        <ele>224.288</ele>
        <time>2017-02-26T08:43:05.843Z</time>
      </trkpt>
      <trkpt lat="43.46663" lon="1.48745">
        <ele>222.84</ele>
        <time>2017-02-26T08:43:28.932Z</time>
      </trkpt>
      <trkpt lat="43.46667" lon="1.48733">
        <ele>221.487</ele>
        <time>2017-02-26T08:43:40.268Z</time>
      </trkpt>
      <trkpt lat="43.46668" lon="1.48719">
        <ele>220.025</ele>
        <time>2017-02-26T08:43:48.644Z</time>
      </trkpt>
      <trkpt lat="43.46665" lon="1.48703">
        <ele>218.536</ele>
        <time>2017-02-26T08:43:56.058Z</time>
      </trkpt>
      <trkpt lat="43.46663" lon="1.48691">
        <ele>217.275</ele>
        <time>2017-02-26T08:44:01.360Z</time>
      </trkpt>
      <trkpt lat="43.46661" lon="1.48676">
        <ele>216.354</ele>
        <time>2017-02-26T08:44:07.070Z</time>
      </trkpt>
      <trkpt lat="43.4666" lon="1.48663">
        <ele>215.713</ele>
        <time>2017-02-26T08:44:11.668Z</time>
      </trkpt>
      <trkpt lat="43.46661" lon="1.4865">
        <ele>215.276</ele>
        <time>2017-02-26T08:44:16.458Z</time>
      </trkpt>
      <trkpt lat="43.46661" lon="1.48637">
        <ele>215.011</ele>
        <time>2017-02-26T08:44:21.731Z</time>
      </trkpt>
      <trkpt lat="43.46666" lon="1.48626">
        <ele>214.7</ele>
        <time>2017-02-26T08:44:27.623Z</time>
      </trkpt>
      <trkpt lat="43.46672" lon="1.48615">
        <ele>214.053</ele>
        <time>2017-02-26T08:44:34.214Z</time>
      </trkpt>
      <trkpt lat="43.46678" lon="1.48605">
        <ele>213.062</ele>
        <time>2017-02-26T08:44:40.927Z</time>
      </trkpt>
      <trkpt lat="43.46687" lon="1.486">
        <ele>212.067</ele>
        <time>2017-02-26T08:44:47.800Z</time>
      </trkpt>
      <trkpt lat="43.46695" lon="1.48592">
        <ele>211.417</ele>
        <time>2017-02-26T08:44:55.325Z</time>
      </trkpt>
      <trkpt lat="43.46695" lon="1.4858">
        <ele>211.167</ele>
        <time>2017-02-26T08:45:02.885Z</time>
      </trkpt>
      <trkpt lat="43.46696" lon="1.48567">
        <ele>211.049</ele>
        <time>2017-02-26T08:45:09.760Z</time>
      </trkpt>
      <trkpt lat="43.46701" lon="1.48556">
        <ele>210.73</ele>
        <time>2017-02-26T08:45:17.487Z</time>
      </trkpt>
      <trkpt lat="43.46706" lon="1.48544">
        <ele>210.144</ele>
        <time>2017-02-26T08:45:26.371Z</time>
      </trkpt>
      <trkpt lat="43.4671" lon="1.48532">
        <ele>209.51</ele>
        <time>2017-02-26T08:45:35.868Z</time>
      </trkpt>
      <trkpt lat="43.46715" lon="1.48521">
        <ele>208.913</ele>
        <time>2017-02-26T08:45:44.676Z</time>
      </trkpt>
      <trkpt lat="43.46717" lon="1.48509">
        <ele>208.266</ele>
        <time>2017-02-26T08:45:52.897Z</time>
      </trkpt>
      <trkpt lat="43.46719" lon="1.48496">
        <ele>207.593</ele>
        <time>2017-02-26T08:46:01.486Z</time>
      </trkpt>
      <trkpt lat="43.46721" lon="1.48483">
        <ele>206.998</ele>
        <time>2017-02-26T08:46:10.295Z</time>
      </trkpt>
      <trkpt lat="43.46723" lon="1.4847">
        <ele>206.44</ele>
        <time>2017-02-26T08:46:17.639Z</time>
      </trkpt>
      <trkpt lat="43.46725" lon="1.48457">
        <ele>205.833</ele>
        <time>2017-02-26T08:46:25.657Z</time>
      </trkpt>
      <trkpt lat="43.4673" lon="1.48444">
        <ele>205.22</ele>
        <time>2017-02-26T08:46:36.854Z</time>
      </trkpt>
      <trkpt lat="43.46728" lon="1.48432">
        <ele>204.646</ele>
        <time>2017-02-26T08:46:46.493Z</time>
      </trkpt>
      <trkpt lat="43.46721" lon="1.48415">
        <ele>203.988</ele>
        <time>2017-02-26T08:46:59.217Z</time>
      </trkpt>
      <trkpt lat="43.46716" lon="1.48403">
        <ele>203.182</ele>
        <time>2017-02-26T08:47:06.952Z</time>
      </trkpt>
      <trkpt lat="43.46712" lon="1.48392">
        <ele>202.385</ele>
        <time>2017-02-26T08:47:13.671Z</time>
      </trkpt>
      <trkpt lat="43.46708" lon="1.48379">
        <ele>201.756</ele>
        <time>2017-02-26T08:47:20.490Z</time>
      </trkpt>
      <trkpt lat="43.46702" lon="1.48368">
        <ele>201.289</ele>
        <time>2017-02-26T08:47:26.909Z</time>
      </trkpt>
      <trkpt lat="43.46695" lon="1.48357">
        <ele>200.977</ele>
        <time>2017-02-26T08:47:34.330Z</time>
      </trkpt>
      <trkpt lat="43.46688" lon="1.48348">
        <ele>200.852</ele>
        <time>2017-02-26T08:47:41.020Z</time>
      </trkpt>
      <trkpt lat="43.46679" lon="1.48344">
        <ele>200.872</ele>
        <time>2017-02-26T08:47:48.176Z</time>
      </trkpt>
      <trkpt lat="43.46669" lon="1.48346">
        <ele>200.915</ele>
        <time>2017-02-26T08:47:56.743Z</time>
      </trkpt>
      <trkpt lat="43.4666" lon="1.4835">
        <ele>200.878</ele>
        <time>2017-02-26T08:48:04.763Z</time>
      </trkpt>
      <trkpt lat="43.46651" lon="1.48353">
        <ele>200.777</ele>
        <time>2017-02-26T08:48:12.634Z</time>
      </trkpt>
      <trkpt lat="43.46642" lon="1.48356">
        <ele>200.697</ele>
        <time>2017-02-26T08:48:19.831Z</time>
      </trkpt>
      <trkpt lat="43.46634" lon="1.48361">
        <ele>200.677</ele>
        <time>2017-02-26T08:48:28.305Z</time>
      </trkpt>
      <trkpt lat="43.46627" lon="1.4837">
        <ele>200.695</ele>
        <time>2017-02-26T08:48:37.308Z</time>
      </trkpt>
      <trkpt lat="43.46617" lon="1.48373">
        <ele>200.656</ele>
        <time>2017-02-26T08:48:47.032Z</time>
      </trkpt>
      <trkpt lat="43.46608" lon="1.48378">
        <ele>200.508</ele>
        <time>2017-02-26T08:48:56.289Z</time>
      </trkpt>
      <trkpt lat="43.46599" lon="1.48382">
        <ele>200.347</ele>
        <time>2017-02-26T08:49:05.648Z</time>
      </trkpt>
      <trkpt lat="43.4659" lon="1.48389">
        <ele>200.275</ele>
        <time>2017-02-26T08:49:13.662Z</time>
      </trkpt>
      <trkpt lat="43.46584" lon="1.48398">
        <ele>200.325</ele>
        <time>2017-02-26T08:49:20.500Z</time>
      </trkpt>
      <trkpt lat="43.46578" lon="1.48407">
        <ele>200.483</ele>
        <time>2017-02-26T08:49:27.548Z</time>
      </trkpt>
      <trkpt lat="43.46569" lon="1.48414">
        <ele>200.69</ele>
        <time>2017-02-26T08:49:36.281Z</time>
      </trkpt>
      <trkpt lat="43.46561" lon="1.4842">
        <ele>200.875</ele>
        <time>2017-02-26T08:49:44.910Z</time>
      </trkpt>
      <trkpt lat="43.46556" lon="1.4843">
        <ele>200.895</ele>
        <time>2017-02-26T08:49:52.924Z</time>
      </trkpt>
      <trkpt lat="43.46548" lon="1.48439">
        <ele>200.593</ele>
        <time>2017-02-26T08:50:01.858Z</time>
      </trkpt>
      <trkpt lat="43.4654" lon="1.48447">
        <ele>200.085</ele>
        <time>2017-02-26T08:50:11.880Z</time>
      </trkpt>
      <trkpt lat="43.46535" lon="1.48459">
        <ele>199.699</ele>
        <time>2017-02-26T08:50:21.923Z</time>
      </trkpt>
      <trkpt lat="43.46528" lon="1.48467">
        <ele>199.57</ele>
        <time>2017-02-26T08:50:31.082Z</time>
      </trkpt>
      <trkpt lat="43.46521" lon="1.48477">
        <ele>199.558</ele>
        <time>2017-02-26T08:50:40.627Z</time>
      </trkpt>
      <trkpt lat="43.46517" lon="1.48489">
        <ele>199.506</ele>
        <time>2017-02-26T08:50:49.370Z</time>
      </trkpt>
      <trkpt lat="43.46508" lon="1.48489">
        <ele>199.424</ele>
        <time>2017-02-26T08:50:58.232Z</time>
      </trkpt>
      <trkpt lat="43.46497" lon="1.48492">
        <ele>199.436</ele>
        <time>2017-02-26T08:51:06.943Z</time>
      </trkpt>
      <trkpt lat="43.46487" lon="1.48491">
        <ele>199.636</ele>
        <time>2017-02-26T08:51:14.480Z</time>
      </trkpt>
      <trkpt lat="43.46478" lon="1.48488">
        <ele>199.997</ele>
        <time>2017-02-26T08:51:21.451Z</time>
      </trkpt>
      <trkpt lat="43.46468" lon="1.48488">
        <ele>200.414</ele>
        <time>2017-02-26T08:51:29.825Z</time>
      </trkpt>
      <trkpt lat="43.46459" lon="1.48488">
        <ele>200.833</ele>
        <time>2017-02-26T08:51:38.353Z</time>
      </trkpt>
      <trkpt lat="43.46449" lon="1.48487">
        <ele>201.264</ele>
        <time>2017-02-26T08:51:46.835Z</time>
      </trkpt>
      <trkpt lat="43.4644" lon="1.48484">
        <ele>201.732</ele>
        <time>2017-02-26T08:51:55.418Z</time>
      </trkpt>
      <trkpt lat="43.46431" lon="1.48479">
        <ele>202.284</ele>
        <time>2017-02-26T08:52:05.364Z</time>
      </trkpt>
      <trkpt lat="43.46421" lon="1.48474">
        <ele>202.922</ele>
        <time>2017-02-26T08:52:17.817Z</time>
      </trkpt>
      <trkpt lat="43.46413" lon="1.4847">
        <ele>203.624</ele>
        <time>2017-02-26T08:52:29.816Z</time>
      </trkpt>
      <trkpt lat="43.46405" lon="1.48462">
        <ele>204.402</ele>
        <time>2017-02-26T08:52:40.940Z</time>
      </trkpt>
      <trkpt lat="43.46397" lon="1.48454">
        <ele>205.242</ele>
        <time>2017-02-26T08:52:50.872Z</time>
      </trkpt>
      <trkpt lat="43.4639" lon="1.48444">
        <ele>206.08</ele>
        <time>2017-02-26T08:53:02.556Z</time>
      </trkpt>
      <trkpt lat="43.46382" lon="1.48438">
        <ele>206.868</ele>
        <time>2017-02-26T08:53:13.217Z</time>
      </trkpt>
      <trkpt lat="43.46372" lon="1.48434">
        <ele>207.674</ele>
        <time>2017-02-26T08:53:24.037Z</time>
      </trkpt>
      <trkpt lat="43.46363" lon="1.48432">
        <ele>208.551</ele>
        <time>2017-02-26T08:53:34.191Z</time>
      </trkpt>
      <trkpt lat="43.46354" lon="1.48427">
        <ele>209.428</ele>
        <time>2017-02-26T08:53:42.805Z</time>
      </trkpt>
      <trkpt lat="43.46345" lon="1.48423">
        <ele>210.294</ele>
        <time>2017-02-26T08:53:52.422Z</time>
      </trkpt>
      <trkpt lat="43.46334" lon="1.4842">
        <ele>211.126</ele>
        <time>2017-02-26T08:54:04.803Z</time>
      </trkpt>
      <trkpt lat="43.46323" lon="1.48415">
        <ele>211.816</ele>
        <time>2017-02-26T08:54:18.468Z</time>
      </trkpt>
      <trkpt lat="43.46314" lon="1.48413">
        <ele>212.459</ele>
        <time>2017-02-26T08:54:27.097Z</time>
      </trkpt>
      <trkpt lat="43.46304" lon="1.4841">
        <ele>213.232</ele>
        <time>2017-02-26T08:54:35.769Z</time>
      </trkpt>
      <trkpt lat="43.46294" lon="1.48406">
        <ele>214.079</ele>
        <time>2017-02-26T08:54:44.559Z</time>
      </trkpt>
      <trkpt lat="43.46286" lon="1.48403">
        <ele>214.82</ele>
        <time>2017-02-26T08:54:53.779Z</time>
      </trkpt>
      <trkpt lat="43.46277" lon="1.48398">
        <ele>215.385</ele>
        <time>2017-02-26T08:55:04.172Z</time>
      </trkpt>
      <trkpt lat="43.46268" lon="1.48397">
        <ele>215.824</ele>
        <time>2017-02-26T08:55:15.775Z</time>
      </trkpt>
      <trkpt lat="43.46258" lon="1.48394">
        <ele>216.232</ele>
        <time>2017-02-26T08:55:27.735Z</time>
      </trkpt>
      <trkpt lat="43.46249" lon="1.48389">
        <ele>216.715</ele>
        <time>2017-02-26T08:55:36.194Z</time>
      </trkpt>
      <trkpt lat="43.4624" lon="1.48386">
        <ele>217.365</ele>
        <time>2017-02-26T08:55:43.002Z</time>
      </trkpt>
      <trkpt lat="43.46231" lon="1.48384">
        <ele>218.097</ele>
        <time>2017-02-26T08:55:50.751Z</time>
      </trkpt>
      <trkpt lat="43.46222" lon="1.48389">
        <ele>218.687</ele>
        <time>2017-02-26T08:56:00.056Z</time>
      </trkpt>
      <trkpt lat="43.46214" lon="1.48397">
        <ele>219.103</ele>
        <time>2017-02-26T08:56:10.107Z</time>
      </trkpt>
      <trkpt lat="43.46208" lon="1.48407">
        <ele>219.672</ele>
        <time>2017-02-26T08:56:19.219Z</time>
      </trkpt>
      <trkpt lat="43.46202" lon="1.48417">
        <ele>220.758</ele>
        <time>2017-02-26T08:56:27.675Z</time>
      </trkpt>
      <trkpt lat="43.46195" lon="1.48428">
        <ele>222.321</ele>
        <time>2017-02-26T08:56:36.658Z</time>
      </trkpt>
      <trkpt lat="43.4619" lon="1.48438">
        <ele>223.92</ele>
        <time>2017-02-26T08:56:44.576Z</time>
      </trkpt>
      <trkpt lat="43.46185" lon="1.48449">
        <ele>225.228</ele>
        <time>2017-02-26T08:56:53.520Z</time>
      </trkpt>
      <trkpt lat="43.46179" lon="1.4846">
        <ele>226.21</ele>
        <time>2017-02-26T08:57:03.325Z</time>
      </trkpt>
      <trkpt lat="43.46173" lon="1.4847">
        <ele>226.915</ele>
        <time>2017-02-26T08:57:11.307Z</time>
      </trkpt>
      <trkpt lat="43.46166" lon="1.48479">
        <ele>227.416</ele>
        <time>2017-02-26T08:57:20.552Z</time>
      </trkpt>
      <trkpt lat="43.46161" lon="1.48489">
        <ele>227.876</ele>
        <time>2017-02-26T08:57:32.300Z</time>
      </trkpt>
      <trkpt lat="43.46155" lon="1.48498">
        <ele>228.421</ele>
        <time>2017-02-26T08:57:43.280Z</time>
      </trkpt>
      <trkpt lat="43.46149" lon="1.48509">
        <ele>229.085</ele>
        <time>2017-02-26T08:57:52.233Z</time>
      </trkpt>
      <trkpt lat="43.46143" lon="1.48519">
        <ele>229.882</ele>
        <time>2017-02-26T08:58:00.800Z</time>
      </trkpt>
      <trkpt lat="43.46137" lon="1.48528">
        <ele>230.742</ele>
        <time>2017-02-26T08:58:08.444Z</time>
      </trkpt>
      <trkpt lat="43.46132" lon="1.48539">
        <ele>231.529</ele>
        <time>2017-02-26T08:58:16.539Z</time>
      </trkpt>
      <trkpt lat="43.46125" lon="1.48549">
        <ele>232.304</ele>
        <time>2017-02-26T08:58:25.687Z</time>
      </trkpt>
      <trkpt lat="43.4612" lon="1.48559">
        <ele>233.121</ele>
        <time>2017-02-26T08:58:34.767Z</time>
      </trkpt>
      <trkpt lat="43.46113" lon="1.48569">
        <ele>233.884</ele>
        <time>2017-02-26T08:58:44.464Z</time>
      </trkpt>
      <trkpt lat="43.46107" lon="1.48578">
        <ele>234.549</ele>
        <time>2017-02-26T08:58:53.664Z</time>
      </trkpt>
      <trkpt lat="43.461" lon="1.48588">
        <ele>235.263</ele>
        <time>2017-02-26T08:59:03.175Z</time>
      </trkpt>
      <trkpt lat="43.46095" lon="1.48599">
        <ele>236.186</ele>
        <time>2017-02-26T08:59:14.475Z</time>
      </trkpt>
      <trkpt lat="43.4609" lon="1.4861">
        <ele>237.309</ele>
        <time>2017-02-26T08:59:25.573Z</time>
      </trkpt>
      <trkpt lat="43.46082" lon="1.48621">
        <ele>238.443</ele>
        <time>2017-02-26T08:59:35.042Z</time>
      </trkpt>
      <trkpt lat="43.46076" lon="1.48633">
        <ele>239.411</ele>
        <time>2017-02-26T08:59:42.499Z</time>
      </trkpt>
      <trkpt lat="43.46071" lon="1.48645">
        <ele>240.085</ele>
        <time>2017-02-26T08:59:49.654Z</time>
      </trkpt>
      <trkpt lat="43.46065" lon="1.48655">
        <ele>240.461</ele>
        <time>2017-02-26T08:59:57.452Z</time>
      </trkpt>
      <trkpt lat="43.46061" lon="1.48667">
        <ele>240.668</ele>
        <time>2017-02-26T09:00:04.939Z</time>
      </trkpt>
      <trkpt lat="43.46059" lon="1.48681">
        <ele>240.913</ele>
        <time>2017-02-26T09:00:13.524Z</time>
      </trkpt>
      <trkpt lat="43.46055" lon="1.48692">
        <ele>241.315</ele>
        <time>2017-02-26T09:00:22.084Z</time>
      </trkpt>
      <trkpt lat="43.46049" lon="1.48702">
        <ele>241.827</ele>
        <time>2017-02-26T09:00:29.459Z</time>
      </trkpt>
      <trkpt lat="43.46044" lon="1.48713">
        <ele>242.431</ele>
        <time>2017-02-26T09:00:36.510Z</time>
      </trkpt>
      <trkpt lat="43.46039" lon="1.48724">
        <ele>243.118</ele>
        <time>2017-02-26T09:00:44.683Z</time>
      </trkpt>
      <trkpt lat="43.46033" lon="1.48735">
        <ele>243.764</ele>
        <time>2017-02-26T09:00:52.834Z</time>
      </trkpt>
      <trkpt lat="43.46026" lon="1.48745">
        <ele>244.324</ele>
        <time>2017-02-26T09:01:01.328Z</time>
      </trkpt>
      <trkpt lat="43.4602" lon="1.48756">
        <ele>244.875</ele>
        <time>2017-02-26T09:01:11.251Z</time>
      </trkpt>
      <trkpt lat="43.46013" lon="1.48765">
        <ele>245.488</ele>
        <time>2017-02-26T09:01:22.209Z</time>
      </trkpt>
      <trkpt lat="43.46007" lon="1.48775">
        <ele>246.257</ele>
        <time>2017-02-26T09:01:33.656Z</time>
      </trkpt>
      <trkpt lat="43.46" lon="1.48785">
        <ele>247.154</ele>
        <time>2017-02-26T09:01:43.658Z</time>
      </trkpt>
      <trkpt lat="43.45994" lon="1.48795">
        <ele>248.084</ele>
        <time>2017-02-26T09:01:50.688Z</time>
      </trkpt>
      <trkpt lat="43.45988" lon="1.48805">
        <ele>249.087</ele>
        <time>2017-02-26T09:01:57.229Z</time>
      </trkpt>
      <trkpt lat="43.45982" lon="1.48815">
        <ele>250.138</ele>
        <time>2017-02-26T09:02:03.692Z</time>
      </trkpt>
      <trkpt lat="43.45976" lon="1.48826">
        <ele>251.025</ele>
        <time>2017-02-26T09:02:11.265Z</time>
      </trkpt>
      <trkpt lat="43.4597" lon="1.48835">
        <ele>251.585</ele>
        <time>2017-02-26T09:02:18.924Z</time>
      </trkpt>
      <trkpt lat="43.45964" lon="1.48847">
        <ele>251.885</ele>
        <time>2017-02-26T09:02:27.878Z</time>
      </trkpt>
      <trkpt lat="43.45959" lon="1.48858">
        <ele>252.165</ele>
        <time>2017-02-26T09:02:36.143Z</time>
      </trkpt>
      <trkpt lat="43.45953" lon="1.48869">
        <ele>252.539</ele>
        <time>2017-02-26T09:02:43.755Z</time>
      </trkpt>
      <trkpt lat="43.45947" lon="1.4888">
        <ele>252.9</ele>
        <time>2017-02-26T09:02:51.031Z</time>
      </trkpt>
      <trkpt lat="43.45941" lon="1.48889">
        <ele>253.156</ele>
        <time>2017-02-26T09:02:58.318Z</time>
      </trkpt>
      <trkpt lat="43.45935" lon="1.48899">
        <ele>253.351</ele>
        <time>2017-02-26T09:03:07.756Z</time>
      </trkpt>
      <trkpt lat="43.45928" lon="1.48908">
        <ele>253.579</ele>
        <time>2017-02-26T09:03:19.089Z</time>
      </trkpt>
      <trkpt lat="43.45922" lon="1.48918">
        <ele>253.908</ele>
        <time>2017-02-26T09:03:31.127Z</time>
      </trkpt>
      <trkpt lat="43.45915" lon="1.48929">
        <ele>254.4</ele>
        <time>2017-02-26T09:03:41.677Z</time>
      </trkpt>
      <trkpt lat="43.45908" lon="1.48944">
        <ele>255.139</ele>
        <time>2017-02-26T09:03:51.476Z</time>
      </trkpt>
      <trkpt lat="43.45901" lon="1.48952">
        <ele>256.198</ele>
        <time>2017-02-26T09:03:58.253Z</time>
      </trkpt>
      <trkpt lat="43.45895" lon="1.48962">
        <ele>257.448</ele>
        <time>2017-02-26T09:04:05.469Z</time>
      </trkpt>
      <trkpt lat="43.45888" lon="1.48971">
        <ele>258.559</ele>
        <time>2017-02-26T09:04:13.041Z</time>
      </trkpt>
      <trkpt lat="43.45882" lon="1.48982">
        <ele>259.329</ele>
        <time>2017-02-26T09:04:21.712Z</time>
      </trkpt>
      <trkpt lat="43.45877" lon="1.48993">
        <ele>259.826</ele>
        <time>2017-02-26T09:04:31.103Z</time>
      </trkpt>
      <trkpt lat="43.45872" lon="1.49005">
        <ele>260.25</ele>
        <time>2017-02-26T09:04:40.403Z</time>
      </trkpt>
      <trkpt lat="43.45866" lon="1.49016">
        <ele>260.743</ele>
        <time>2017-02-26T09:04:48.282Z</time>
      </trkpt>
      <trkpt lat="43.45862" lon="1.49026">
        <ele>261.271</ele>
        <time>2017-02-26T09:04:55.176Z</time>
      </trkpt>
      <trkpt lat="43.45856" lon="1.49037">
        <ele>261.775</ele>
        <time>2017-02-26T09:05:03.624Z</time>
      </trkpt>
      <trkpt lat="43.4585" lon="1.49048">
        <ele>262.233</ele>
        <time>2017-02-26T09:05:15.157Z</time>
      </trkpt>
      <trkpt lat="43.45844" lon="1.49057">
        <ele>262.622</ele>
        <time>2017-02-26T09:05:24.388Z</time>
      </trkpt>
      <trkpt lat="43.45837" lon="1.49066">
        <ele>263.025</ele>
        <time>2017-02-26T09:05:32.187Z</time>
      </trkpt>
      <trkpt lat="43.4583" lon="1.49075">
        <ele>263.606</ele>
        <time>2017-02-26T09:05:40.028Z</time>
      </trkpt>
      <trkpt lat="43.45825" lon="1.49087">
        <ele>264.389</ele>
        <time>2017-02-26T09:05:49.838Z</time>
      </trkpt>
      <trkpt lat="43.45819" lon="1.49098">
        <ele>265.256</ele>
        <time>2017-02-26T09:06:02.070Z</time>
      </trkpt>
      <trkpt lat="43.45813" lon="1.49107">
        <ele>266.143</ele>
        <time>2017-02-26T09:06:10.943Z</time>
      </trkpt>
      <trkpt lat="43.45806" lon="1.49116">
        <ele>267.108</ele>
        <time>2017-02-26T09:06:18.335Z</time>
      </trkpt>
      <trkpt lat="43.458" lon="1.49127">
        <ele>268.296</ele>
        <time>2017-02-26T09:06:25.461Z</time>
      </trkpt>
      <trkpt lat="43.45795" lon="1.49138">
        <ele>269.686</ele>
        <time>2017-02-26T09:06:33.678Z</time>
      </trkpt>
      <trkpt lat="43.45788" lon="1.49149">
        <ele>270.972</ele>
        <time>2017-02-26T09:06:43.049Z</time>
      </trkpt>
      <trkpt lat="43.45781" lon="1.49159">
        <ele>271.904</ele>
        <time>2017-02-26T09:06:51.456Z</time>
      </trkpt>
      <trkpt lat="43.45776" lon="1.4917">
        <ele>272.54</ele>
        <time>2017-02-26T09:06:58.956Z</time>
      </trkpt>
      <trkpt lat="43.45769" lon="1.49179">
        <ele>273.057</ele>
        <time>2017-02-26T09:07:05.936Z</time>
      </trkpt>
      <trkpt lat="43.45764" lon="1.4919">
        <ele>273.499</ele>
        <time>2017-02-26T09:07:13.738Z</time>
      </trkpt>
      <trkpt lat="43.45758" lon="1.49201">
        <ele>273.836</ele>
        <time>2017-02-26T09:07:20.701Z</time>
      </trkpt>
      <trkpt lat="43.45751" lon="1.4921">
        <ele>274.096</ele>
        <time>2017-02-26T09:07:27.687Z</time>
      </trkpt>
      <trkpt lat="43.45745" lon="1.4922">
        <ele>274.362</ele>
        <time>2017-02-26T09:07:35.575Z</time>
      </trkpt>
      <trkpt lat="43.4574" lon="1.49231">
        <ele>274.658</ele>
        <time>2017-02-26T09:07:44.334Z</time>
      </trkpt>
      <trkpt lat="43.45734" lon="1.49241">
        <ele>274.922</ele>
        <time>2017-02-26T09:07:52.124Z</time>
      </trkpt>
      <trkpt lat="43.45727" lon="1.49252">
        <ele>275.105</ele>
        <time>2017-02-26T09:07:59.784Z</time>
      </trkpt>
      <trkpt lat="43.4572" lon="1.49262">
        <ele>275.236</ele>
        <time>2017-02-26T09:08:07.444Z</time>
      </trkpt>
      <trkpt lat="43.45714" lon="1.49274">
        <ele>275.369</ele>
        <time>2017-02-26T09:08:16.394Z</time>
      </trkpt>
      <trkpt lat="43.45708" lon="1.49284">
        <ele>275.506</ele>
        <time>2017-02-26T09:08:25.823Z</time>
      </trkpt>
      <trkpt lat="43.457" lon="1.49295">
        <ele>275.623</ele>
        <time>2017-02-26T09:08:35.058Z</time>
      </trkpt>
      <trkpt lat="43.45693" lon="1.49305">
        <ele>275.756</ele>
        <time>2017-02-26T09:08:43.448Z</time>
      </trkpt>
      <trkpt lat="43.45685" lon="1.49313">
        <ele>275.929</ele>
        <time>2017-02-26T09:08:51.077Z</time>
      </trkpt>
      <trkpt lat="43.45677" lon="1.4932">
        <ele>276.149</ele>
        <time>2017-02-26T09:08:58.066Z</time>
      </trkpt>
      <trkpt lat="43.4567" lon="1.49329">
        <ele>276.468</ele>
        <time>2017-02-26T09:09:05.350Z</time>
      </trkpt>
      <trkpt lat="43.45662" lon="1.49338">
        <ele>276.89</ele>
        <time>2017-02-26T09:09:12.422Z</time>
      </trkpt>
      <trkpt lat="43.45655" lon="1.49348">
        <ele>277.285</ele>
        <time>2017-02-26T09:09:19.186Z</time>
      </trkpt>
      <trkpt lat="43.45647" lon="1.49357">
        <ele>277.557</ele>
        <time>2017-02-26T09:09:27.772Z</time>
      </trkpt>
      <trkpt lat="43.4564" lon="1.49366">
        <ele>277.734</ele>
        <time>2017-02-26T09:09:36.071Z</time>
      </trkpt>
      <trkpt lat="43.45631" lon="1.49372">
        <ele>277.856</ele>
        <time>2017-02-26T09:09:42.430Z</time>
      </trkpt>
      <trkpt lat="43.45625" lon="1.49382">
        <ele>277.998</ele>
        <time>2017-02-26T09:09:48.740Z</time>
      </trkpt>
      <trkpt lat="43.45618" lon="1.49391">
        <ele>278.216</ele>
        <time>2017-02-26T09:09:56.357Z</time>
      </trkpt>
      <trkpt lat="43.45611" lon="1.494">
        <ele>278.439</ele>
        <time>2017-02-26T09:10:04.669Z</time>
      </trkpt>
      <trkpt lat="43.45604" lon="1.49408">
        <ele>278.596</ele>
        <time>2017-02-26T09:10:13.073Z</time>
      </trkpt>
      <trkpt lat="43.45597" lon="1.49416">
        <ele>278.708</ele>
        <time>2017-02-26T09:10:20.876Z</time>
      </trkpt>
      <trkpt lat="43.4559" lon="1.49424">
        <ele>278.841</ele>
        <time>2017-02-26T09:10:27.719Z</time>
      </trkpt>
      <trkpt lat="43.45582" lon="1.49433">
        <ele>279.073</ele>
        <time>2017-02-26T09:10:34.248Z</time>
      </trkpt>
      <trkpt lat="43.45576" lon="1.49442">
        <ele>279.37</ele>
        <time>2017-02-26T09:10:41.390Z</time>
      </trkpt>
      <trkpt lat="43.45569" lon="1.49452">
        <ele>279.599</ele>
        <time>2017-02-26T09:10:50.883Z</time>
      </trkpt>
      <trkpt lat="43.45561" lon="1.49459">
        <ele>279.689</ele>
        <time>2017-02-26T09:11:00.516Z</time>
      </trkpt>
      <trkpt lat="43.45553" lon="1.49471">
        <ele>279.666</ele>
        <time>2017-02-26T09:11:10.789Z</time>
      </trkpt>
      <trkpt lat="43.45546" lon="1.49482">
        <ele>279.59</ele>
        <time>2017-02-26T09:11:18.470Z</time>
      </trkpt>
      <trkpt lat="43.4554" lon="1.49493">
        <ele>279.568</ele>
        <time>2017-02-26T09:11:25.789Z</time>
      </trkpt>
      <trkpt lat="43.45536" lon="1.49505">
        <ele>279.684</ele>
        <time>2017-02-26T09:11:32.958Z</time>
      </trkpt>
      <trkpt lat="43.45531" lon="1.49516">
        <ele>279.872</ele>
        <time>2017-02-26T09:11:41.191Z</time>
      </trkpt>
      <trkpt lat="43.45527" lon="1.49528">
        <ele>280.034</ele>
        <time>2017-02-26T09:11:48.535Z</time>
      </trkpt>
      <trkpt lat="43.45522" lon="1.4954">
        <ele>280.141</ele>
        <time>2017-02-26T09:11:56.414Z</time>
      </trkpt>
      <trkpt lat="43.45517" lon="1.49551">
        <ele>280.186</ele>
        <time>2017-02-26T09:12:03.497Z</time>
      </trkpt>
      <trkpt lat="43.45514" lon="1.49563">
        <ele>280.182</ele>
        <time>2017-02-26T09:12:10.235Z</time>
      </trkpt>
      <trkpt lat="43.45509" lon="1.49574">
        <ele>280.151</ele>
        <time>2017-02-26T09:12:16.515Z</time>
      </trkpt>
      <trkpt lat="43.45505" lon="1.49586">
        <ele>280.12</ele>
        <time>2017-02-26T09:12:23.414Z</time>
      </trkpt>
      <trkpt lat="43.455" lon="1.49597">
        <ele>280.123</ele>
        <time>2017-02-26T09:12:30.534Z</time>
      </trkpt>
      <trkpt lat="43.45496" lon="1.49609">
        <ele>280.195</ele>
        <time>2017-02-26T09:12:38.981Z</time>
      </trkpt>
      <trkpt lat="43.45491" lon="1.4962">
        <ele>280.326</ele>
        <time>2017-02-26T09:12:48.158Z</time>
      </trkpt>
      <trkpt lat="43.45488" lon="1.49632">
        <ele>280.476</ele>
        <time>2017-02-26T09:12:57.494Z</time>
      </trkpt>
      <trkpt lat="43.45483" lon="1.49644">
        <ele>280.643</ele>
        <time>2017-02-26T09:13:06.641Z</time>
      </trkpt>
      <trkpt lat="43.45478" lon="1.49655">
        <ele>280.855</ele>
        <time>2017-02-26T09:13:15.361Z</time>
      </trkpt>
      <trkpt lat="43.45474" lon="1.49667">
        <ele>281.068</ele>
        <time>2017-02-26T09:13:24.029Z</time>
      </trkpt>
      <trkpt lat="43.4547" lon="1.49678">
        <ele>281.226</ele>
        <time>2017-02-26T09:13:30.889Z</time>
      </trkpt>
      <trkpt lat="43.45464" lon="1.49689">
        <ele>281.311</ele>
        <time>2017-02-26T09:13:37.667Z</time>
      </trkpt>
      <trkpt lat="43.45459" lon="1.497">
        <ele>281.295</ele>
        <time>2017-02-26T09:13:44.157Z</time>
      </trkpt>
      <trkpt lat="43.45454" lon="1.49711">
        <ele>281.15</ele>
        <time>2017-02-26T09:13:51.839Z</time>
      </trkpt>
      <trkpt lat="43.45448" lon="1.49722">
        <ele>280.845</ele>
        <time>2017-02-26T09:14:00.642Z</time>
      </trkpt>
      <trkpt lat="43.45443" lon="1.49732">
        <ele>280.301</ele>
        <time>2017-02-26T09:14:11.742Z</time>
      </trkpt>
      <trkpt lat="43.45436" lon="1.49741">
        <ele>279.419</ele>
        <time>2017-02-26T09:14:23.522Z</time>
      </trkpt>
      <trkpt lat="43.45431" lon="1.49753">
        <ele>278.402</ele>
        <time>2017-02-26T09:14:32.481Z</time>
      </trkpt>
      <trkpt lat="43.45425" lon="1.49764">
        <ele>277.891</ele>
        <time>2017-02-26T09:14:39.507Z</time>
      </trkpt>
      <trkpt lat="43.4542" lon="1.49777">
        <ele>278.23</ele>
        <time>2017-02-26T09:14:46.387Z</time>
      </trkpt>
      <trkpt lat="43.45414" lon="1.49788">
        <ele>278.962</ele>
        <time>2017-02-26T09:14:53.061Z</time>
      </trkpt>
      <trkpt lat="43.45408" lon="1.498">
        <ele>279.491</ele>
        <time>2017-02-26T09:15:00.657Z</time>
      </trkpt>
      <trkpt lat="43.45403" lon="1.49812">
        <ele>279.671</ele>
        <time>2017-02-26T09:15:08.409Z</time>
      </trkpt>
      <trkpt lat="43.45399" lon="1.49823">
        <ele>279.589</ele>
        <time>2017-02-26T09:15:15.301Z</time>
      </trkpt>
      <trkpt lat="43.45394" lon="1.49835">
        <ele>279.344</ele>
        <time>2017-02-26T09:15:22.311Z</time>
      </trkpt>
      <trkpt lat="43.45389" lon="1.49846">
        <ele>279.075</ele>
        <time>2017-02-26T09:15:29.844Z</time>
      </trkpt>
      <trkpt lat="43.45384" lon="1.49857">
        <ele>278.911</ele>
        <time>2017-02-26T09:15:37.136Z</time>
      </trkpt>
      <trkpt lat="43.45379" lon="1.49868">
        <ele>278.827</ele>
        <time>2017-02-26T09:15:44.214Z</time>
      </trkpt>
      <trkpt lat="43.45375" lon="1.4988">
        <ele>278.751</ele>
        <time>2017-02-26T09:15:50.646Z</time>
      </trkpt>
      <trkpt lat="43.4537" lon="1.49891">
        <ele>278.61</ele>
        <time>2017-02-26T09:15:56.297Z</time>
      </trkpt>
      <trkpt lat="43.45364" lon="1.49904">
        <ele>278.333</ele>
        <time>2017-02-26T09:16:03.077Z</time>
      </trkpt>
      <trkpt lat="43.45359" lon="1.49915">
        <ele>277.9</ele>
        <time>2017-02-26T09:16:10.081Z</time>
      </trkpt>
      <trkpt lat="43.45353" lon="1.49926">
        <ele>277.356</ele>
        <time>2017-02-26T09:16:18.046Z</time>
      </trkpt>
      <trkpt lat="43.45347" lon="1.49937">
        <ele>276.742</ele>
        <time>2017-02-26T09:16:25.923Z</time>
      </trkpt>
      <trkpt lat="43.45342" lon="1.49947">
        <ele>276.109</ele>
        <time>2017-02-26T09:16:33.866Z</time>
      </trkpt>
      <trkpt lat="43.45336" lon="1.49958">
        <ele>275.563</ele>
        <time>2017-02-26T09:16:41.813Z</time>
      </trkpt>
      <trkpt lat="43.45329" lon="1.49967">
        <ele>275.194</ele>
        <time>2017-02-26T09:16:49.345Z</time>
      </trkpt>
      <trkpt lat="43.45322" lon="1.49976">
        <ele>274.973</ele>
        <time>2017-02-26T09:16:57.273Z</time>
      </trkpt>
      <trkpt lat="43.45316" lon="1.49987">
        <ele>274.812</ele>
        <time>2017-02-26T09:17:04.997Z</time>
      </trkpt>
      <trkpt lat="43.4531" lon="1.49997">
        <ele>274.588</ele>
        <time>2017-02-26T09:17:11.676Z</time>
      </trkpt>
      <trkpt lat="43.45303" lon="1.50006">
        <ele>274.258</ele>
        <time>2017-02-26T09:17:19.442Z</time>
      </trkpt>
      <trkpt lat="43.45297" lon="1.50016">
        <ele>273.946</ele>
        <time>2017-02-26T09:17:28.223Z</time>
      </trkpt>
      <trkpt lat="43.4529" lon="1.50025">
        <ele>273.729</ele>
        <time>2017-02-26T09:17:36.181Z</time>
      </trkpt>
      <trkpt lat="43.45284" lon="1.50034">
        <ele>273.517</ele>
        <time>2017-02-26T09:17:42.927Z</time>
      </trkpt>
      <trkpt lat="43.45278" lon="1.50046">
        <ele>273.259</ele>
        <time>2017-02-26T09:17:49.315Z</time>
      </trkpt>
      <trkpt lat="43.45271" lon="1.50055">
        <ele>273.048</ele>
        <time>2017-02-26T09:17:54.896Z</time>
      </trkpt>
      <trkpt lat="43.45265" lon="1.50065">
        <ele>272.921</ele>
        <time>2017-02-26T09:18:01.449Z</time>
      </trkpt>
      <trkpt lat="43.45259" lon="1.50075">
        <ele>272.741</ele>
        <time>2017-02-26T09:18:09.152Z</time>
      </trkpt>
      <trkpt lat="43.45252" lon="1.50084">
        <ele>272.454</ele>
        <time>2017-02-26T09:18:17.400Z</time>
      </trkpt>
      <trkpt lat="43.45247" lon="1.50094">
        <ele>272.188</ele>
        <time>2017-02-26T09:18:24.802Z</time>
      </trkpt>
      <trkpt lat="43.45242" lon="1.50105">
        <ele>272.042</ele>
        <time>2017-02-26T09:18:33.007Z</time>
      </trkpt>
      <trkpt lat="43.45236" lon="1.50115">
        <ele>271.991</ele>
        <time>2017-02-26T09:18:41.882Z</time>
      </trkpt>
      <trkpt lat="43.45229" lon="1.50125">
        <ele>271.989</ele>
        <time>2017-02-26T09:18:50.296Z</time>
      </trkpt>
      <trkpt lat="43.45223" lon="1.50134">
        <ele>272.027</ele>
        <time>2017-02-26T09:18:57.530Z</time>
      </trkpt>
      <trkpt lat="43.45216" lon="1.50145">
        <ele>272.114</ele>
        <time>2017-02-26T09:19:05.334Z</time>
      </trkpt>
      <trkpt lat="43.45208" lon="1.50154">
        <ele>272.215</ele>
        <time>2017-02-26T09:19:12.814Z</time>
      </trkpt>
      <trkpt lat="43.45202" lon="1.50165">
        <ele>272.279</ele>
        <time>2017-02-26T09:19:20.289Z</time>
      </trkpt>
      <trkpt lat="43.45195" lon="1.50175">
        <ele>272.339</ele>
        <time>2017-02-26T09:19:27.679Z</time>
      </trkpt>
      <trkpt lat="43.45189" lon="1.50185">
        <ele>272.45</ele>
        <time>2017-02-26T09:19:34.828Z</time>
      </trkpt>
      <trkpt lat="43.45181" lon="1.50194">
        <ele>272.57</ele>
        <time>2017-02-26T09:19:42.438Z</time>
      </trkpt>
      <trkpt lat="43.45175" lon="1.50204">
        <ele>272.629</ele>
        <time>2017-02-26T09:19:49.994Z</time>
      </trkpt>
      <trkpt lat="43.45167" lon="1.50212">
        <ele>272.626</ele>
        <time>2017-02-26T09:19:58.465Z</time>
      </trkpt>
      <trkpt lat="43.45159" lon="1.50221">
        <ele>272.601</ele>
        <time>2017-02-26T09:20:06.769Z</time>
      </trkpt>
      <trkpt lat="43.45153" lon="1.50229">
        <ele>272.585</ele>
        <time>2017-02-26T09:20:15.386Z</time>
      </trkpt>
      <trkpt lat="43.45146" lon="1.50238">
        <ele>272.58</ele>
        <time>2017-02-26T09:20:23.356Z</time>
      </trkpt>
      <trkpt lat="43.45138" lon="1.50247">
        <ele>272.507</ele>
        <time>2017-02-26T09:20:30.618Z</time>
      </trkpt>
      <trkpt lat="43.45131" lon="1.50254">
        <ele>272.271</ele>
        <time>2017-02-26T09:20:37.577Z</time>
      </trkpt>
      <trkpt lat="43.45123" lon="1.50264">
        <ele>271.845</ele>
        <time>2017-02-26T09:20:44.746Z</time>
      </trkpt>
      <trkpt lat="43.45116" lon="1.50271">
        <ele>271.334</ele>
        <time>2017-02-26T09:20:50.843Z</time>
      </trkpt>
      <trkpt lat="43.4511" lon="1.50281">
        <ele>270.904</ele>
        <time>2017-02-26T09:20:56.823Z</time>
      </trkpt>
      <trkpt lat="43.45103" lon="1.5029">
        <ele>270.566</ele>
        <time>2017-02-26T09:21:02.875Z</time>
      </trkpt>
      <trkpt lat="43.45096" lon="1.50297">
        <ele>270.146</ele>
        <time>2017-02-26T09:21:09.077Z</time>
      </trkpt>
      <trkpt lat="43.45088" lon="1.50306">
        <ele>269.606</ele>
        <time>2017-02-26T09:21:15.950Z</time>
      </trkpt>
      <trkpt lat="43.45081" lon="1.50315">
        <ele>269.082</ele>
        <time>2017-02-26T09:21:23.428Z</time>
      </trkpt>
      <trkpt lat="43.45074" lon="1.50323">
        <ele>268.607</ele>
        <time>2017-02-26T09:21:30.844Z</time>
      </trkpt>
      <trkpt lat="43.45066" lon="1.50331">
        <ele>268.091</ele>
        <time>2017-02-26T09:21:38.211Z</time>
      </trkpt>
      <trkpt lat="43.45059" lon="1.5034">
        <ele>267.494</ele>
        <time>2017-02-26T09:21:45.516Z</time>
      </trkpt>
      <trkpt lat="43.45052" lon="1.50349">
        <ele>266.846</ele>
        <time>2017-02-26T09:21:54.083Z</time>
      </trkpt>
      <trkpt lat="43.45045" lon="1.5036">
        <ele>266.205</ele>
        <time>2017-02-26T09:22:02.166Z</time>
      </trkpt>
      <trkpt lat="43.45037" lon="1.50369">
        <ele>265.608</ele>
        <time>2017-02-26T09:22:09.432Z</time>
      </trkpt>
      <trkpt lat="43.4503" lon="1.50377">
        <ele>265.105</ele>
        <time>2017-02-26T09:22:16.518Z</time>
      </trkpt>
      <trkpt lat="43.45023" lon="1.50386">
        <ele>264.777</ele>
        <time>2017-02-26T09:22:23.393Z</time>
      </trkpt>
      <trkpt lat="43.45017" lon="1.50396">
        <ele>264.6</ele>
        <time>2017-02-26T09:22:30.607Z</time>
      </trkpt>
      <trkpt lat="43.4501" lon="1.50406">
        <ele>264.457</ele>
        <time>2017-02-26T09:22:39.008Z</time>
      </trkpt>
      <trkpt lat="43.45002" lon="1.50415">
        <ele>264.228</ele>
        <time>2017-02-26T09:22:47.811Z</time>
      </trkpt>
      <trkpt lat="43.44996" lon="1.50425">
        <ele>263.887</ele>
        <time>2017-02-26T09:22:55.796Z</time>
      </trkpt>
      <trkpt lat="43.4499" lon="1.50435">
        <ele>263.468</ele>
        <time>2017-02-26T09:23:03.508Z</time>
      </trkpt>
      <trkpt lat="43.44983" lon="1.50445">
        <ele>262.916</ele>
        <time>2017-02-26T09:23:11.201Z</time>
      </trkpt>
      <trkpt lat="43.44975" lon="1.50454">
        <ele>262.215</ele>
        <time>2017-02-26T09:23:19.276Z</time>
      </trkpt>
      <trkpt lat="43.44969" lon="1.50465">
        <ele>261.558</ele>
        <time>2017-02-26T09:23:29.705Z</time>
      </trkpt>
      <trkpt lat="43.44961" lon="1.50472">
        <ele>261.11</ele>
        <time>2017-02-26T09:23:39.917Z</time>
      </trkpt>
      <trkpt lat="43.44954" lon="1.50481">
        <ele>260.816</ele>
        <time>2017-02-26T09:23:45.802Z</time>
      </trkpt>
      <trkpt lat="43.44945" lon="1.50489">
        <ele>260.584</ele>
        <time>2017-02-26T09:23:51.400Z</time>
      </trkpt>
      <trkpt lat="43.44938" lon="1.50497">
        <ele>260.395</ele>
        <time>2017-02-26T09:23:56.685Z</time>
      </trkpt>
      <trkpt lat="43.44931" lon="1.50506">
        <ele>260.22</ele>
        <time>2017-02-26T09:24:03.724Z</time>
      </trkpt>
      <trkpt lat="43.44922" lon="1.50513">
        <ele>260.034</ele>
        <time>2017-02-26T09:24:11.375Z</time>
      </trkpt>
      <trkpt lat="43.44914" lon="1.50522">
        <ele>259.758</ele>
        <time>2017-02-26T09:24:19.245Z</time>
      </trkpt>
      <trkpt lat="43.44907" lon="1.50531">
        <ele>259.369</ele>
        <time>2017-02-26T09:24:24.769Z</time>
      </trkpt>
      <trkpt lat="43.449" lon="1.50539">
        <ele>259.038</ele>
        <time>2017-02-26T09:24:29.101Z</time>
      </trkpt>
      <trkpt lat="43.44893" lon="1.50547">
        <ele>258.934</ele>
        <time>2017-02-26T09:24:33.738Z</time>
      </trkpt>
      <trkpt lat="43.44885" lon="1.50555">
        <ele>259.048</ele>
        <time>2017-02-26T09:24:39.756Z</time>
      </trkpt>
      <trkpt lat="43.44876" lon="1.50561">
        <ele>259.289</ele>
        <time>2017-02-26T09:24:46.173Z</time>
      </trkpt>
      <trkpt lat="43.44868" lon="1.5057">
        <ele>259.523</ele>
        <time>2017-02-26T09:24:54.043Z</time>
      </trkpt>
      <trkpt lat="43.44861" lon="1.50578">
        <ele>259.658</ele>
        <time>2017-02-26T09:25:02.416Z</time>
      </trkpt>
      <trkpt lat="43.44853" lon="1.50586">
        <ele>259.664</ele>
        <time>2017-02-26T09:25:10.113Z</time>
      </trkpt>
      <trkpt lat="43.44846" lon="1.50595">
        <ele>259.536</ele>
        <time>2017-02-26T09:25:16.032Z</time>
      </trkpt>
      <trkpt lat="43.44837" lon="1.506">
        <ele>259.298</ele>
        <time>2017-02-26T09:25:22.744Z</time>
      </trkpt>
      <trkpt lat="43.44829" lon="1.50607">
        <ele>258.906</ele>
        <time>2017-02-26T09:25:29.864Z</time>
      </trkpt>
      <trkpt lat="43.4482" lon="1.50613">
        <ele>258.259</ele>
        <time>2017-02-26T09:25:40.144Z</time>
      </trkpt>
      <trkpt lat="43.44812" lon="1.5062">
        <ele>257.446</ele>
        <time>2017-02-26T09:25:48.727Z</time>
      </trkpt>
      <trkpt lat="43.44804" lon="1.5063">
        <ele>256.713</ele>
        <time>2017-02-26T09:25:56.959Z</time>
      </trkpt>
      <trkpt lat="43.44796" lon="1.50639">
        <ele>256.171</ele>
        <time>2017-02-26T09:26:03.086Z</time>
      </trkpt>
      <trkpt lat="43.44787" lon="1.50641">
        <ele>255.639</ele>
        <time>2017-02-26T09:26:09.721Z</time>
      </trkpt>
      <trkpt lat="43.44778" lon="1.50647">
        <ele>254.705</ele>
        <time>2017-02-26T09:26:18.145Z</time>
      </trkpt>
      <trkpt lat="43.44771" lon="1.50659">
        <ele>253.323</ele>
        <time>2017-02-26T09:26:28.879Z</time>
      </trkpt>
      <trkpt lat="43.44764" lon="1.50667">
        <ele>251.954</ele>
        <time>2017-02-26T09:26:34.596Z</time>
      </trkpt>
      <trkpt lat="43.44756" lon="1.50674">
        <ele>250.878</ele>
        <time>2017-02-26T09:26:40.363Z</time>
      </trkpt>
      <trkpt lat="43.44748" lon="1.50682">
        <ele>249.913</ele>
        <time>2017-02-26T09:26:47.327Z</time>
      </trkpt>
      <trkpt lat="43.44739" lon="1.50689">
        <ele>248.966</ele>
        <time>2017-02-26T09:26:55.129Z</time>
      </trkpt>
      <trkpt lat="43.4473" lon="1.50695">
        <ele>248.189</ele>
        <time>2017-02-26T09:27:02.417Z</time>
      </trkpt>
      <trkpt lat="43.4472" lon="1.50697">
        <ele>247.53</ele>
        <time>2017-02-26T09:27:09.745Z</time>
      </trkpt>
      <trkpt lat="43.4471" lon="1.50699">
        <ele>246.768</ele>
        <time>2017-02-26T09:27:18.934Z</time>
      </trkpt>
      <trkpt lat="43.447" lon="1.50698">
        <ele>245.89</ele>
        <time>2017-02-26T09:27:29.077Z</time>
      </trkpt>
      <trkpt lat="43.44691" lon="1.507">
        <ele>244.824</ele>
        <time>2017-02-26T09:27:39.786Z</time>
      </trkpt>
      <trkpt lat="43.44682" lon="1.50707">
        <ele>243.26</ele>
        <time>2017-02-26T09:27:52.674Z</time>
      </trkpt>
      <trkpt lat="43.44676" lon="1.50718">
        <ele>240.891</ele>
        <time>2017-02-26T09:28:09.849Z</time>
      </trkpt>
      <trkpt lat="43.44668" lon="1.50727">
        <ele>237.947</ele>
        <time>2017-02-26T09:28:18.253Z</time>
      </trkpt>
      <trkpt lat="43.44659" lon="1.50727">
        <ele>235.05</ele>
        <time>2017-02-26T09:28:25.134Z</time>
      </trkpt>
      <trkpt lat="43.44654" lon="1.50716">
        <ele>232.433</ele>
        <time>2017-02-26T09:28:33.065Z</time>
      </trkpt>
      <trkpt lat="43.4465" lon="1.50705">
        <ele>229.976</ele>
        <time>2017-02-26T09:28:42.742Z</time>
      </trkpt>
      <trkpt lat="43.44645" lon="1.50693">
        <ele>227.586</ele>
        <time>2017-02-26T09:28:52.691Z</time>
      </trkpt>
      <trkpt lat="43.44641" lon="1.50681">
        <ele>225.227</ele>
        <time>2017-02-26T09:29:00.778Z</time>
      </trkpt>
      <trkpt lat="43.44637" lon="1.50668">
        <ele>223.092</ele>
        <time>2017-02-26T09:29:10.155Z</time>
      </trkpt>
      <trkpt lat="43.44631" lon="1.50658">
        <ele>221.141</ele>
        <time>2017-02-26T09:29:19.655Z</time>
      </trkpt>
      <trkpt lat="43.44626" lon="1.50646">
        <ele>219.148</ele>
        <time>2017-02-26T09:29:30.025Z</time>
      </trkpt>
      <trkpt lat="43.44621" lon="1.50636">
        <ele>217.109</ele>
        <time>2017-02-26T09:29:40.139Z</time>
      </trkpt>
      <trkpt lat="43.44612" lon="1.5063">
        <ele>215.055</ele>
        <time>2017-02-26T09:29:49.445Z</time>
      </trkpt>
      <trkpt lat="43.44602" lon="1.50628">
        <ele>213.081</ele>
        <time>2017-02-26T09:29:57.965Z</time>
      </trkpt>
      <trkpt lat="43.44593" lon="1.50625">
        <ele>211.249</ele>
        <time>2017-02-26T09:30:07.275Z</time>
      </trkpt>
      <trkpt lat="43.44583" lon="1.50628">
        <ele>209.281</ele>
        <time>2017-02-26T09:30:15.607Z</time>
      </trkpt>
      <trkpt lat="43.44573" lon="1.50626">
        <ele>207.096</ele>
        <time>2017-02-26T09:30:23.248Z</time>
      </trkpt>
      <trkpt lat="43.44563" lon="1.50624">
        <ele>205.018</ele>
        <time>2017-02-26T09:30:30.571Z</time>
      </trkpt>
      <trkpt lat="43.44554" lon="1.50619">
        <ele>203.284</ele>
        <time>2017-02-26T09:30:37.249Z</time>
      </trkpt>
      <trkpt lat="43.44544" lon="1.50616">
        <ele>201.935</ele>
        <time>2017-02-26T09:30:44.975Z</time>
      </trkpt>
      <trkpt lat="43.44534" lon="1.50614">
        <ele>201.045</ele>
        <time>2017-02-26T09:30:52.478Z</time>
      </trkpt>
      <trkpt lat="43.44525" lon="1.5061">
        <ele>200.702</ele>
        <time>2017-02-26T09:31:00.421Z</time>
      </trkpt>
      <trkpt lat="43.44516" lon="1.50605">
        <ele>200.808</ele>
        <time>2017-02-26T09:31:08.967Z</time>
      </trkpt>
      <trkpt lat="43.44509" lon="1.50597">
        <ele>201.161</ele>
        <time>2017-02-26T09:31:17.427Z</time>
      </trkpt>
      <trkpt lat="43.445" lon="1.5059">
        <ele>201.595</ele>
        <time>2017-02-26T09:31:25.975Z</time>
      </trkpt>
      <trkpt lat="43.44493" lon="1.50581">
        <ele>202.001</ele>
        <time>2017-02-26T09:31:34.305Z</time>
      </trkpt>
      <trkpt lat="43.44485" lon="1.50575">
        <ele>202.312</ele>
        <time>2017-02-26T09:31:42.211Z</time>
      </trkpt>
      <trkpt lat="43.44476" lon="1.50578">
        <ele>202.526</ele>
        <time>2017-02-26T09:31:50.999Z</time>
      </trkpt>
      <trkpt lat="43.44476" lon="1.50578">
        <ele>202.672</ele>
        <time>2017-02-26T09:31:56.000Z</time>
      </trkpt>
      <trkpt lat="43.44476" lon="1.50578">
        <ele>202.709</ele>
        <time>2017-02-26T09:38:58.490Z</time>
      </trkpt>
      <trkpt lat="43.44472" lon="1.50602">
        <ele>202.618</ele>
        <time>2017-02-26T09:39:32.570Z</time>
      </trkpt>
      <trkpt lat="43.4447" lon="1.50615">
        <ele>202.769</ele>
        <time>2017-02-26T09:39:44.172Z</time>
      </trkpt>
      <trkpt lat="43.44468" lon="1.50627">
        <ele>203.448</ele>
        <time>2017-02-26T09:39:57.262Z</time>
      </trkpt>
      <trkpt lat="43.44467" lon="1.5064">
        <ele>204.392</ele>
        <time>2017-02-26T09:40:13.403Z</time>
      </trkpt>
      <trkpt lat="43.44464" lon="1.50653">
        <ele>205.417</ele>
        <time>2017-02-26T09:40:24.726Z</time>
      </trkpt>
      <trkpt lat="43.44457" lon="1.50662">
        <ele>206.583</ele>
        <time>2017-02-26T09:40:33.524Z</time>
      </trkpt>
      <trkpt lat="43.44453" lon="1.50674">
        <ele>207.917</ele>
        <time>2017-02-26T09:40:42.238Z</time>
      </trkpt>
      <trkpt lat="43.4445" lon="1.50686">
        <ele>209.385</ele>
        <time>2017-02-26T09:40:52.248Z</time>
      </trkpt>
      <trkpt lat="43.44448" lon="1.50698">
        <ele>210.949</ele>
        <time>2017-02-26T09:41:03.199Z</time>
      </trkpt>
      <trkpt lat="43.44446" lon="1.50711">
        <ele>212.627</ele>
        <time>2017-02-26T09:41:14.773Z</time>
      </trkpt>
      <trkpt lat="43.44445" lon="1.50724">
        <ele>214.304</ele>
        <time>2017-02-26T09:41:26.832Z</time>
      </trkpt>
      <trkpt lat="43.44441" lon="1.50736">
        <ele>215.735</ele>
        <time>2017-02-26T09:41:39.623Z</time>
      </trkpt>
      <trkpt lat="43.44435" lon="1.50746">
        <ele>216.892</ele>
        <time>2017-02-26T09:41:53.202Z</time>
      </trkpt>
      <trkpt lat="43.44431" lon="1.50757">
        <ele>217.982</ele>
        <time>2017-02-26T09:42:01.472Z</time>
      </trkpt>
      <trkpt lat="43.44426" lon="1.50768">
        <ele>219.185</ele>
        <time>2017-02-26T09:42:07.942Z</time>
      </trkpt>
      <trkpt lat="43.44423" lon="1.5078">
        <ele>220.366</ele>
        <time>2017-02-26T09:42:15.517Z</time>
      </trkpt>
      <trkpt lat="43.44419" lon="1.50794">
        <ele>221.374</ele>
        <time>2017-02-26T09:42:25.498Z</time>
      </trkpt>
      <trkpt lat="43.44416" lon="1.50806">
        <ele>222.381</ele>
        <time>2017-02-26T09:42:34.692Z</time>
      </trkpt>
      <trkpt lat="43.44411" lon="1.50817">
        <ele>223.511</ele>
        <time>2017-02-26T09:42:43.212Z</time>
      </trkpt>
      <trkpt lat="43.44405" lon="1.50828">
        <ele>224.628</ele>
        <time>2017-02-26T09:42:51.331Z</time>
      </trkpt>
      <trkpt lat="43.444" lon="1.50839">
        <ele>225.624</ele>
        <time>2017-02-26T09:42:58.909Z</time>
      </trkpt>
      <trkpt lat="43.44396" lon="1.50851">
        <ele>226.533</ele>
        <time>2017-02-26T09:43:07.254Z</time>
      </trkpt>
      <trkpt lat="43.44393" lon="1.50863">
        <ele>227.346</ele>
        <time>2017-02-26T09:43:15.484Z</time>
      </trkpt>
      <trkpt lat="43.44392" lon="1.50877">
        <ele>228.029</ele>
        <time>2017-02-26T09:43:24.979Z</time>
      </trkpt>
      <trkpt lat="43.44388" lon="1.50889">
        <ele>228.53</ele>
        <time>2017-02-26T09:43:34.056Z</time>
      </trkpt>
      <trkpt lat="43.44385" lon="1.50902">
        <ele>228.793</ele>
        <time>2017-02-26T09:43:44.530Z</time>
      </trkpt>
      <trkpt lat="43.44382" lon="1.50914">
        <ele>228.854</ele>
        <time>2017-02-26T09:43:53.501Z</time>
      </trkpt>
      <trkpt lat="43.44378" lon="1.50927">
        <ele>228.839</ele>
        <time>2017-02-26T09:44:02.839Z</time>
      </trkpt>
      <trkpt lat="43.44375" lon="1.5094">
        <ele>228.85</ele>
        <time>2017-02-26T09:44:12.544Z</time>
      </trkpt>
      <trkpt lat="43.44371" lon="1.50952">
        <ele>229.004</ele>
        <time>2017-02-26T09:44:21.383Z</time>
      </trkpt>
      <trkpt lat="43.44368" lon="1.50967">
        <ele>229.443</ele>
        <time>2017-02-26T09:44:31.998Z</time>
      </trkpt>
      <trkpt lat="43.44366" lon="1.50979">
        <ele>230.253</ele>
        <time>2017-02-26T09:44:41.296Z</time>
      </trkpt>
      <trkpt lat="43.44363" lon="1.50992">
        <ele>231.306</ele>
        <time>2017-02-26T09:44:50.400Z</time>
      </trkpt>
      <trkpt lat="43.4436" lon="1.51005">
        <ele>232.365</ele>
        <time>2017-02-26T09:44:59.755Z</time>
      </trkpt>
      <trkpt lat="43.44356" lon="1.51018">
        <ele>233.333</ele>
        <time>2017-02-26T09:45:08.859Z</time>
      </trkpt>
      <trkpt lat="43.44353" lon="1.51029">
        <ele>234.183</ele>
        <time>2017-02-26T09:45:16.259Z</time>
      </trkpt>
      <trkpt lat="43.44352" lon="1.51043">
        <ele>234.812</ele>
        <time>2017-02-26T09:45:25.024Z</time>
      </trkpt>
      <trkpt lat="43.44352" lon="1.51056">
        <ele>235.206</ele>
        <time>2017-02-26T09:45:33.437Z</time>
      </trkpt>
      <trkpt lat="43.44351" lon="1.51069">
        <ele>235.431</ele>
        <time>2017-02-26T09:45:40.764Z</time>
      </trkpt>
      <trkpt lat="43.44349" lon="1.51082">
        <ele>235.497</ele>
        <time>2017-02-26T09:45:46.712Z</time>
      </trkpt>
      <trkpt lat="43.44347" lon="1.51094">
        <ele>235.402</ele>
        <time>2017-02-26T09:45:53.281Z</time>
      </trkpt>
      <trkpt lat="43.44346" lon="1.51107">
        <ele>235.19</ele>
        <time>2017-02-26T09:46:00.518Z</time>
      </trkpt>
      <trkpt lat="43.44348" lon="1.5112">
        <ele>234.93</ele>
        <time>2017-02-26T09:46:09.268Z</time>
      </trkpt>
      <trkpt lat="43.4435" lon="1.51134">
        <ele>234.615</ele>
        <time>2017-02-26T09:46:17.499Z</time>
      </trkpt>
      <trkpt lat="43.44349" lon="1.51147">
        <ele>234.196</ele>
        <time>2017-02-26T09:46:24.293Z</time>
      </trkpt>
      <trkpt lat="43.44349" lon="1.51161">
        <ele>233.72</ele>
        <time>2017-02-26T09:46:31.423Z</time>
      </trkpt>
      <trkpt lat="43.44352" lon="1.51173">
        <ele>233.311</ele>
        <time>2017-02-26T09:46:38.936Z</time>
      </trkpt>
      <trkpt lat="43.44357" lon="1.51184">
        <ele>233.021</ele>
        <time>2017-02-26T09:46:46.783Z</time>
      </trkpt>
      <trkpt lat="43.4436" lon="1.51197">
        <ele>232.782</ele>
        <time>2017-02-26T09:46:54.825Z</time>
      </trkpt>
      <trkpt lat="43.44357" lon="1.51209">
        <ele>232.538</ele>
        <time>2017-02-26T09:47:01.228Z</time>
      </trkpt>
      <trkpt lat="43.44359" lon="1.51224">
        <ele>232.32</ele>
        <time>2017-02-26T09:47:08.265Z</time>
      </trkpt>
      <trkpt lat="43.44358" lon="1.51237">
        <ele>232.057</ele>
        <time>2017-02-26T09:47:15.284Z</time>
      </trkpt>
      <trkpt lat="43.44362" lon="1.5125">
        <ele>231.687</ele>
        <time>2017-02-26T09:47:23.325Z</time>
      </trkpt>
      <trkpt lat="43.44362" lon="1.51264">
        <ele>231.309</ele>
        <time>2017-02-26T09:47:31.342Z</time>
      </trkpt>
      <trkpt lat="43.44363" lon="1.51276">
        <ele>231.034</ele>
        <time>2017-02-26T09:47:38.317Z</time>
      </trkpt>
      <trkpt lat="43.44366" lon="1.51289">
        <ele>230.904</ele>
        <time>2017-02-26T09:47:46.232Z</time>
      </trkpt>
      <trkpt lat="43.44367" lon="1.51303">
        <ele>230.925</ele>
        <time>2017-02-26T09:47:55.554Z</time>
      </trkpt>
      <trkpt lat="43.44368" lon="1.51315">
        <ele>231.072</ele>
        <time>2017-02-26T09:48:04.352Z</time>
      </trkpt>
      <trkpt lat="43.44371" lon="1.51327">
        <ele>231.328</ele>
        <time>2017-02-26T09:48:13.434Z</time>
      </trkpt>
      <trkpt lat="43.44374" lon="1.5134">
        <ele>231.754</ele>
        <time>2017-02-26T09:48:22.582Z</time>
      </trkpt>
      <trkpt lat="43.44375" lon="1.51354">
        <ele>232.339</ele>
        <time>2017-02-26T09:48:29.940Z</time>
      </trkpt>
      <trkpt lat="43.44375" lon="1.51369">
        <ele>233.023</ele>
        <time>2017-02-26T09:48:36.893Z</time>
      </trkpt>
      <trkpt lat="43.44371" lon="1.51383">
        <ele>233.794</ele>
        <time>2017-02-26T09:48:44.084Z</time>
      </trkpt>
      <trkpt lat="43.44374" lon="1.51395">
        <ele>234.518</ele>
        <time>2017-02-26T09:48:51.239Z</time>
      </trkpt>
      <trkpt lat="43.44382" lon="1.514">
        <ele>235.097</ele>
        <time>2017-02-26T09:48:59.323Z</time>
      </trkpt>
      <trkpt lat="43.44388" lon="1.51411">
        <ele>235.627</ele>
        <time>2017-02-26T09:49:08.157Z</time>
      </trkpt>
      <trkpt lat="43.44392" lon="1.51424">
        <ele>236.147</ele>
        <time>2017-02-26T09:49:15.953Z</time>
      </trkpt>
      <trkpt lat="43.44394" lon="1.51437">
        <ele>236.653</ele>
        <time>2017-02-26T09:49:23.550Z</time>
      </trkpt>
      <trkpt lat="43.444" lon="1.51447">
        <ele>237.127</ele>
        <time>2017-02-26T09:49:31.666Z</time>
      </trkpt>
      <trkpt lat="43.44402" lon="1.51459">
        <ele>237.499</ele>
        <time>2017-02-26T09:49:39.719Z</time>
      </trkpt>
      <trkpt lat="43.44404" lon="1.51472">
        <ele>237.757</ele>
        <time>2017-02-26T09:49:48.219Z</time>
      </trkpt>
      <trkpt lat="43.44405" lon="1.51485">
        <ele>237.965</ele>
        <time>2017-02-26T09:49:56.395Z</time>
      </trkpt>
      <trkpt lat="43.44404" lon="1.51498">
        <ele>238.212</ele>
        <time>2017-02-26T09:50:04.104Z</time>
      </trkpt>
      <trkpt lat="43.44405" lon="1.51511">
        <ele>238.501</ele>
        <time>2017-02-26T09:50:11.614Z</time>
      </trkpt>
      <trkpt lat="43.44401" lon="1.51523">
        <ele>238.788</ele>
        <time>2017-02-26T09:50:19.569Z</time>
      </trkpt>
      <trkpt lat="43.44401" lon="1.51536">
        <ele>239.081</ele>
        <time>2017-02-26T09:50:27.192Z</time>
      </trkpt>
      <trkpt lat="43.44402" lon="1.51549">
        <ele>239.398</ele>
        <time>2017-02-26T09:50:34.658Z</time>
      </trkpt>
      <trkpt lat="43.44406" lon="1.51561">
        <ele>239.742</ele>
        <time>2017-02-26T09:50:43.130Z</time>
      </trkpt>
      <trkpt lat="43.44409" lon="1.51574">
        <ele>240.145</ele>
        <time>2017-02-26T09:50:52.263Z</time>
      </trkpt>
      <trkpt lat="43.44417" lon="1.51583">
        <ele>240.57</ele>
        <time>2017-02-26T09:51:02.547Z</time>
      </trkpt>
      <trkpt lat="43.44426" lon="1.51587">
        <ele>241.011</ele>
        <time>2017-02-26T09:51:13.098Z</time>
      </trkpt>
      <trkpt lat="43.44435" lon="1.5159">
        <ele>241.485</ele>
        <time>2017-02-26T09:51:22.309Z</time>
      </trkpt>
      <trkpt lat="43.44444" lon="1.51595">
        <ele>241.868</ele>
        <time>2017-02-26T09:51:30.468Z</time>
      </trkpt>
      <trkpt lat="43.44454" lon="1.51599">
        <ele>242.047</ele>
        <time>2017-02-26T09:51:38.661Z</time>
      </trkpt>
      <trkpt lat="43.44464" lon="1.51604">
        <ele>242.119</ele>
        <time>2017-02-26T09:51:46.510Z</time>
      </trkpt>
      <trkpt lat="43.44474" lon="1.51605">
        <ele>242.174</ele>
        <time>2017-02-26T09:51:54.402Z</time>
      </trkpt>
      <trkpt lat="43.44483" lon="1.51606">
        <ele>242.206</ele>
        <time>2017-02-26T09:52:02.226Z</time>
      </trkpt>
      <trkpt lat="43.44493" lon="1.51609">
        <ele>242.185</ele>
        <time>2017-02-26T09:52:10.790Z</time>
      </trkpt>
      <trkpt lat="43.44502" lon="1.51612">
        <ele>242.066</ele>
        <time>2017-02-26T09:52:18.322Z</time>
      </trkpt>
      <trkpt lat="43.44511" lon="1.51613">
        <ele>241.804</ele>
        <time>2017-02-26T09:52:25.854Z</time>
      </trkpt>
      <trkpt lat="43.4452" lon="1.51615">
        <ele>241.434</ele>
        <time>2017-02-26T09:52:33.578Z</time>
      </trkpt>
      <trkpt lat="43.4453" lon="1.51619">
        <ele>241.084</ele>
        <time>2017-02-26T09:52:42.365Z</time>
      </trkpt>
      <trkpt lat="43.44539" lon="1.51618">
        <ele>240.893</ele>
        <time>2017-02-26T09:52:51.378Z</time>
      </trkpt>
      <trkpt lat="43.44549" lon="1.51619">
        <ele>240.918</ele>
        <time>2017-02-26T09:53:00.835Z</time>
      </trkpt>
      <trkpt lat="43.44558" lon="1.51621">
        <ele>241.067</ele>
        <time>2017-02-26T09:53:09.578Z</time>
      </trkpt>
      <trkpt lat="43.44567" lon="1.5162">
        <ele>241.3</ele>
        <time>2017-02-26T09:53:17.590Z</time>
      </trkpt>
      <trkpt lat="43.44577" lon="1.51624">
        <ele>241.643</ele>
        <time>2017-02-26T09:53:25.744Z</time>
      </trkpt>
      <trkpt lat="43.44586" lon="1.51627">
        <ele>242.097</ele>
        <time>2017-02-26T09:53:33.707Z</time>
      </trkpt>
      <trkpt lat="43.44595" lon="1.51632">
        <ele>242.678</ele>
        <time>2017-02-26T09:53:42.342Z</time>
      </trkpt>
      <trkpt lat="43.44605" lon="1.51634">
        <ele>243.375</ele>
        <time>2017-02-26T09:53:51.301Z</time>
      </trkpt>
      <trkpt lat="43.44613" lon="1.51642">
        <ele>244.149</ele>
        <time>2017-02-26T09:54:00.758Z</time>
      </trkpt>
      <trkpt lat="43.44622" lon="1.51647">
        <ele>245.041</ele>
        <time>2017-02-26T09:54:09.701Z</time>
      </trkpt>
      <trkpt lat="43.44631" lon="1.51651">
        <ele>246.051</ele>
        <time>2017-02-26T09:54:18.049Z</time>
      </trkpt>
      <trkpt lat="43.4464" lon="1.51653">
        <ele>247.068</ele>
        <time>2017-02-26T09:54:26.271Z</time>
      </trkpt>
      <trkpt lat="43.44646" lon="1.51665">
        <ele>247.967</ele>
        <time>2017-02-26T09:54:35.211Z</time>
      </trkpt>
      <trkpt lat="43.44654" lon="1.51674">
        <ele>248.743</ele>
        <time>2017-02-26T09:54:48.691Z</time>
      </trkpt>
      <trkpt lat="43.44662" lon="1.51679">
        <ele>249.573</ele>
        <time>2017-02-26T09:54:58.571Z</time>
      </trkpt>
      <trkpt lat="43.44672" lon="1.5168">
        <ele>250.552</ele>
        <time>2017-02-26T09:55:05.694Z</time>
      </trkpt>
      <trkpt lat="43.44681" lon="1.51685">
        <ele>251.566</ele>
        <time>2017-02-26T09:55:11.558Z</time>
      </trkpt>
      <trkpt lat="43.44689" lon="1.51693">
        <ele>252.437</ele>
        <time>2017-02-26T09:55:17.783Z</time>
      </trkpt>
      <trkpt lat="43.44697" lon="1.51701">
        <ele>253.037</ele>
        <time>2017-02-26T09:55:24.301Z</time>
      </trkpt>
      <trkpt lat="43.44705" lon="1.51707">
        <ele>253.372</ele>
        <time>2017-02-26T09:55:31.132Z</time>
      </trkpt>
      <trkpt lat="43.44712" lon="1.51717">
        <ele>253.547</ele>
        <time>2017-02-26T09:55:39.040Z</time>
      </trkpt>
      <trkpt lat="43.44721" lon="1.51725">
        <ele>253.605</ele>
        <time>2017-02-26T09:55:47.958Z</time>
      </trkpt>
      <trkpt lat="43.4473" lon="1.51735">
        <ele>253.549</ele>
        <time>2017-02-26T09:55:58.541Z</time>
      </trkpt>
      <trkpt lat="43.44738" lon="1.51743">
        <ele>253.427</ele>
        <time>2017-02-26T09:56:07.313Z</time>
      </trkpt>
      <trkpt lat="43.44745" lon="1.51752">
        <ele>253.353</ele>
        <time>2017-02-26T09:56:15.824Z</time>
      </trkpt>
      <trkpt lat="43.44755" lon="1.51755">
        <ele>253.448</ele>
        <time>2017-02-26T09:56:25.604Z</time>
      </trkpt>
      <trkpt lat="43.44764" lon="1.51758">
        <ele>253.722</ele>
        <time>2017-02-26T09:56:35.086Z</time>
      </trkpt>
      <trkpt lat="43.44774" lon="1.51758">
        <ele>254.035</ele>
        <time>2017-02-26T09:56:43.642Z</time>
      </trkpt>
      <trkpt lat="43.44785" lon="1.5176">
        <ele>254.329</ele>
        <time>2017-02-26T09:56:52.274Z</time>
      </trkpt>
      <trkpt lat="43.44794" lon="1.51759">
        <ele>254.65</ele>
        <time>2017-02-26T09:57:00.111Z</time>
      </trkpt>
      <trkpt lat="43.44804" lon="1.5176">
        <ele>254.944</ele>
        <time>2017-02-26T09:57:08.630Z</time>
      </trkpt>
      <trkpt lat="43.44813" lon="1.51761">
        <ele>255.155</ele>
        <time>2017-02-26T09:57:19.015Z</time>
      </trkpt>
      <trkpt lat="43.44822" lon="1.51763">
        <ele>255.352</ele>
        <time>2017-02-26T09:57:26.940Z</time>
      </trkpt>
      <trkpt lat="43.44835" lon="1.51766">
        <ele>255.606</ele>
        <time>2017-02-26T09:57:38.296Z</time>
      </trkpt>
      <trkpt lat="43.44845" lon="1.51769">
        <ele>255.912</ele>
        <time>2017-02-26T09:57:48.986Z</time>
      </trkpt>
      <trkpt lat="43.44855" lon="1.51769">
        <ele>256.203</ele>
        <time>2017-02-26T09:57:58.768Z</time>
      </trkpt>
      <trkpt lat="43.44865" lon="1.51771">
        <ele>256.413</ele>
        <time>2017-02-26T09:58:05.997Z</time>
      </trkpt>
      <trkpt lat="43.44875" lon="1.51774">
        <ele>256.519</ele>
        <time>2017-02-26T09:58:13.843Z</time>
      </trkpt>
      <trkpt lat="43.44884" lon="1.51776">
        <ele>256.485</ele>
        <time>2017-02-26T09:58:21.416Z</time>
      </trkpt>
      <trkpt lat="43.44894" lon="1.51779">
        <ele>256.282</ele>
        <time>2017-02-26T09:58:28.794Z</time>
      </trkpt>
      <trkpt lat="43.44904" lon="1.51783">
        <ele>255.996</ele>
        <time>2017-02-26T09:58:38.525Z</time>
      </trkpt>
      <trkpt lat="43.44914" lon="1.5178">
        <ele>255.79</ele>
        <time>2017-02-26T09:58:48.587Z</time>
      </trkpt>
      <trkpt lat="43.44923" lon="1.51781">
        <ele>255.709</ele>
        <time>2017-02-26T09:58:54.792Z</time>
      </trkpt>
      <trkpt lat="43.44933" lon="1.51784">
        <ele>255.666</ele>
        <time>2017-02-26T09:58:59.939Z</time>
      </trkpt>
      <trkpt lat="43.44942" lon="1.51789">
        <ele>255.606</ele>
        <time>2017-02-26T09:59:04.970Z</time>
      </trkpt>
      <trkpt lat="43.44951" lon="1.51794">
        <ele>255.543</ele>
        <time>2017-02-26T09:59:10.604Z</time>
      </trkpt>
      <trkpt lat="43.44961" lon="1.51795">
        <ele>255.509</ele>
        <time>2017-02-26T09:59:17.179Z</time>
      </trkpt>
      <trkpt lat="43.4497" lon="1.51796">
        <ele>255.499</ele>
        <time>2017-02-26T09:59:23.809Z</time>
      </trkpt>
      <trkpt lat="43.4498" lon="1.51795">
        <ele>255.493</ele>
        <time>2017-02-26T09:59:31.796Z</time>
      </trkpt>
      <trkpt lat="43.44989" lon="1.51802">
        <ele>255.483</ele>
        <time>2017-02-26T09:59:39.947Z</time>
      </trkpt>
      <trkpt lat="43.44998" lon="1.51807">
        <ele>255.519</ele>
        <time>2017-02-26T09:59:46.988Z</time>
      </trkpt>
      <trkpt lat="43.45006" lon="1.51811">
        <ele>255.642</ele>
        <time>2017-02-26T09:59:53.999Z</time>
      </trkpt>
      <trkpt lat="43.45015" lon="1.51816">
        <ele>255.858</ele>
        <time>2017-02-26T10:00:01.263Z</time>
      </trkpt>
      <trkpt lat="43.45023" lon="1.51822">
        <ele>256.138</ele>
        <time>2017-02-26T10:00:09.932Z</time>
      </trkpt>
      <trkpt lat="43.45033" lon="1.51824">
        <ele>256.493</ele>
        <time>2017-02-26T10:00:17.879Z</time>
      </trkpt>
      <trkpt lat="43.45042" lon="1.51829">
        <ele>256.908</ele>
        <time>2017-02-26T10:00:25.628Z</time>
      </trkpt>
      <trkpt lat="43.45051" lon="1.51833">
        <ele>257.293</ele>
        <time>2017-02-26T10:00:32.683Z</time>
      </trkpt>
      <trkpt lat="43.45059" lon="1.51839">
        <ele>257.636</ele>
        <time>2017-02-26T10:00:40.025Z</time>
      </trkpt>
      <trkpt lat="43.45068" lon="1.51842">
        <ele>257.998</ele>
        <time>2017-02-26T10:00:48.073Z</time>
      </trkpt>
      <trkpt lat="43.45076" lon="1.5185">
        <ele>258.374</ele>
        <time>2017-02-26T10:00:57.663Z</time>
      </trkpt>
      <trkpt lat="43.45085" lon="1.51855">
        <ele>258.748</ele>
        <time>2017-02-26T10:01:05.873Z</time>
      </trkpt>
      <trkpt lat="43.45093" lon="1.51859">
        <ele>259.05</ele>
        <time>2017-02-26T10:01:13.710Z</time>
      </trkpt>
      <trkpt lat="43.45103" lon="1.51861">
        <ele>259.193</ele>
        <time>2017-02-26T10:01:22.149Z</time>
      </trkpt>
      <trkpt lat="43.45113" lon="1.51865">
        <ele>259.132</ele>
        <time>2017-02-26T10:01:29.881Z</time>
      </trkpt>
      <trkpt lat="43.45122" lon="1.5187">
        <ele>258.858</ele>
        <time>2017-02-26T10:01:36.510Z</time>
      </trkpt>
      <trkpt lat="43.45131" lon="1.51874">
        <ele>258.493</ele>
        <time>2017-02-26T10:01:43.475Z</time>
      </trkpt>
      <trkpt lat="43.4514" lon="1.51881">
        <ele>258.189</ele>
        <time>2017-02-26T10:01:51.111Z</time>
      </trkpt>
      <trkpt lat="43.45148" lon="1.51889">
        <ele>257.98</ele>
        <time>2017-02-26T10:02:00.049Z</time>
      </trkpt>
      <trkpt lat="43.45155" lon="1.51898">
        <ele>257.797</ele>
        <time>2017-02-26T10:02:08.219Z</time>
      </trkpt>
      <trkpt lat="43.45161" lon="1.51909">
        <ele>257.553</ele>
        <time>2017-02-26T10:02:15.145Z</time>
      </trkpt>
      <trkpt lat="43.4517" lon="1.51914">
        <ele>257.265</ele>
        <time>2017-02-26T10:02:21.239Z</time>
      </trkpt>
      <trkpt lat="43.45179" lon="1.51919">
        <ele>257.032</ele>
        <time>2017-02-26T10:02:28.050Z</time>
      </trkpt>
      <trkpt lat="43.45188" lon="1.51924">
        <ele>256.885</ele>
        <time>2017-02-26T10:02:34.602Z</time>
      </trkpt>
      <trkpt lat="43.45195" lon="1.51931">
        <ele>256.792</ele>
        <time>2017-02-26T10:02:41.560Z</time>
      </trkpt>
      <trkpt lat="43.45199" lon="1.51943">
        <ele>256.728</ele>
        <time>2017-02-26T10:02:50.669Z</time>
      </trkpt>
      <trkpt lat="43.45207" lon="1.5195">
        <ele>256.702</ele>
        <time>2017-02-26T10:02:59.490Z</time>
      </trkpt>
      <trkpt lat="43.45213" lon="1.51959">
        <ele>256.718</ele>
        <time>2017-02-26T10:03:06.937Z</time>
      </trkpt>
      <trkpt lat="43.4522" lon="1.51968">
        <ele>256.751</ele>
        <time>2017-02-26T10:03:13.726Z</time>
      </trkpt>
      <trkpt lat="43.45228" lon="1.51974">
        <ele>256.81</ele>
        <time>2017-02-26T10:03:21.315Z</time>
      </trkpt>
      <trkpt lat="43.45235" lon="1.51982">
        <ele>256.943</ele>
        <time>2017-02-26T10:03:28.726Z</time>
      </trkpt>
      <trkpt lat="43.45243" lon="1.51989">
        <ele>257.159</ele>
        <time>2017-02-26T10:03:36.403Z</time>
      </trkpt>
      <trkpt lat="43.45251" lon="1.51995">
        <ele>257.455</ele>
        <time>2017-02-26T10:03:43.711Z</time>
      </trkpt>
      <trkpt lat="43.4526" lon="1.52002">
        <ele>257.837</ele>
        <time>2017-02-26T10:03:51.507Z</time>
      </trkpt>
      <trkpt lat="43.45269" lon="1.52002">
        <ele>258.221</ele>
        <time>2017-02-26T10:03:58.602Z</time>
      </trkpt>
      <trkpt lat="43.45278" lon="1.52007">
        <ele>258.476</ele>
        <time>2017-02-26T10:04:06.564Z</time>
      </trkpt>
      <trkpt lat="43.45285" lon="1.52015">
        <ele>258.549</ele>
        <time>2017-02-26T10:04:15.373Z</time>
      </trkpt>
      <trkpt lat="43.45295" lon="1.5202">
        <ele>258.494</ele>
        <time>2017-02-26T10:04:23.977Z</time>
      </trkpt>
      <trkpt lat="43.453" lon="1.52031">
        <ele>258.508</ele>
        <time>2017-02-26T10:04:31.621Z</time>
      </trkpt>
      <trkpt lat="43.45308" lon="1.52038">
        <ele>258.757</ele>
        <time>2017-02-26T10:04:40.707Z</time>
      </trkpt>
      <trkpt lat="43.45317" lon="1.52042">
        <ele>259.219</ele>
        <time>2017-02-26T10:04:49.332Z</time>
      </trkpt>
      <trkpt lat="43.45326" lon="1.52047">
        <ele>259.746</ele>
        <time>2017-02-26T10:04:57.492Z</time>
      </trkpt>
      <trkpt lat="43.45333" lon="1.52056">
        <ele>260.202</ele>
        <time>2017-02-26T10:05:05.900Z</time>
      </trkpt>
      <trkpt lat="43.45343" lon="1.52059">
        <ele>260.723</ele>
        <time>2017-02-26T10:05:15.385Z</time>
      </trkpt>
      <trkpt lat="43.45353" lon="1.52063">
        <ele>261.544</ele>
        <time>2017-02-26T10:05:26.030Z</time>
      </trkpt>
      <trkpt lat="43.45362" lon="1.52067">
        <ele>262.46</ele>
        <time>2017-02-26T10:05:36.351Z</time>
      </trkpt>
      <trkpt lat="43.45372" lon="1.52072">
        <ele>263.143</ele>
        <time>2017-02-26T10:05:47.093Z</time>
      </trkpt>
      <trkpt lat="43.45381" lon="1.52076">
        <ele>263.549</ele>
        <time>2017-02-26T10:05:56.903Z</time>
      </trkpt>
      <trkpt lat="43.4539" lon="1.52081">
        <ele>263.717</ele>
        <time>2017-02-26T10:06:04.999Z</time>
      </trkpt>
      <trkpt lat="43.4539" lon="1.52081">
        <ele>263.694</ele>
        <time>2017-02-26T10:06:17.999Z</time>
      </trkpt>
      <trkpt lat="43.4539" lon="1.52081">
        <ele>263.587</ele>
        <time>2017-02-26T10:06:18.099Z</time>
      </trkpt>
      <trkpt lat="43.45404" lon="1.5208">
        <ele>263.475</ele>
        <time>2017-02-26T10:06:43.857Z</time>
      </trkpt>
      <trkpt lat="43.45413" lon="1.52087">
        <ele>263.39</ele>
        <time>2017-02-26T10:06:52.404Z</time>
      </trkpt>
      <trkpt lat="43.45422" lon="1.52091">
        <ele>263.334</ele>
        <time>2017-02-26T10:06:59.643Z</time>
      </trkpt>
      <trkpt lat="43.45436" lon="1.52094">
        <ele>263.351</ele>
        <time>2017-02-26T10:07:10.056Z</time>
      </trkpt>
      <trkpt lat="43.45445" lon="1.52098">
        <ele>263.548</ele>
        <time>2017-02-26T10:07:18.026Z</time>
      </trkpt>
      <trkpt lat="43.45455" lon="1.52103">
        <ele>263.924</ele>
        <time>2017-02-26T10:07:28.996Z</time>
      </trkpt>
      <trkpt lat="43.45465" lon="1.52106">
        <ele>264.333</ele>
        <time>2017-02-26T10:07:37.255Z</time>
      </trkpt>
      <trkpt lat="43.45474" lon="1.52109">
        <ele>264.758</ele>
        <time>2017-02-26T10:07:43.558Z</time>
      </trkpt>
      <trkpt lat="43.45483" lon="1.52112">
        <ele>265.278</ele>
        <time>2017-02-26T10:07:49.231Z</time>
      </trkpt>
      <trkpt lat="43.45492" lon="1.52115">
        <ele>265.826</ele>
        <time>2017-02-26T10:07:54.986Z</time>
      </trkpt>
      <trkpt lat="43.45501" lon="1.52119">
        <ele>266.286</ele>
        <time>2017-02-26T10:08:01.496Z</time>
      </trkpt>
      <trkpt lat="43.4551" lon="1.52122">
        <ele>266.653</ele>
        <time>2017-02-26T10:08:08.171Z</time>
      </trkpt>
      <trkpt lat="43.4552" lon="1.52125">
        <ele>267.013</ele>
        <time>2017-02-26T10:08:16.920Z</time>
      </trkpt>
      <trkpt lat="43.45529" lon="1.52129">
        <ele>267.454</ele>
        <time>2017-02-26T10:08:25.804Z</time>
      </trkpt>
      <trkpt lat="43.45539" lon="1.52133">
        <ele>268.069</ele>
        <time>2017-02-26T10:08:33.297Z</time>
      </trkpt>
      <trkpt lat="43.45548" lon="1.52138">
        <ele>268.873</ele>
        <time>2017-02-26T10:08:40.339Z</time>
      </trkpt>
      <trkpt lat="43.45557" lon="1.52141">
        <ele>269.69</ele>
        <time>2017-02-26T10:08:48.707Z</time>
      </trkpt>
      <trkpt lat="43.45565" lon="1.52144">
        <ele>270.412</ele>
        <time>2017-02-26T10:09:00.233Z</time>
      </trkpt>
      <trkpt lat="43.45576" lon="1.52147">
        <ele>271.12</ele>
        <time>2017-02-26T10:09:13.556Z</time>
      </trkpt>
      <trkpt lat="43.45588" lon="1.52151">
        <ele>271.911</ele>
        <time>2017-02-26T10:09:25.799Z</time>
      </trkpt>
      <trkpt lat="43.45596" lon="1.52157">
        <ele>272.858</ele>
        <time>2017-02-26T10:09:33.548Z</time>
      </trkpt>
      <trkpt lat="43.45603" lon="1.52166">
        <ele>273.955</ele>
        <time>2017-02-26T10:09:41.045Z</time>
      </trkpt>
      <trkpt lat="43.45607" lon="1.52177">
        <ele>275.038</ele>
        <time>2017-02-26T10:09:48.300Z</time>
      </trkpt>
      <trkpt lat="43.45613" lon="1.52186">
        <ele>275.978</ele>
        <time>2017-02-26T10:09:54.765Z</time>
      </trkpt>
      <trkpt lat="43.45621" lon="1.52194">
        <ele>276.706</ele>
        <time>2017-02-26T10:10:01.481Z</time>
      </trkpt>
      <trkpt lat="43.4563" lon="1.52197">
        <ele>277.147</ele>
        <time>2017-02-26T10:10:09.285Z</time>
      </trkpt>
      <trkpt lat="43.45639" lon="1.52203">
        <ele>277.313</ele>
        <time>2017-02-26T10:10:17.592Z</time>
      </trkpt>
      <trkpt lat="43.45648" lon="1.52206">
        <ele>277.436</ele>
        <time>2017-02-26T10:10:26.056Z</time>
      </trkpt>
      <trkpt lat="43.45656" lon="1.52213">
        <ele>277.747</ele>
        <time>2017-02-26T10:10:34.154Z</time>
      </trkpt>
      <trkpt lat="43.45664" lon="1.52218">
        <ele>278.268</ele>
        <time>2017-02-26T10:10:43.183Z</time>
      </trkpt>
      <trkpt lat="43.45674" lon="1.52224">
        <ele>278.851</ele>
        <time>2017-02-26T10:10:54.349Z</time>
      </trkpt>
      <trkpt lat="43.45683" lon="1.5223">
        <ele>279.403</ele>
        <time>2017-02-26T10:11:02.460Z</time>
      </trkpt>
      <trkpt lat="43.45691" lon="1.52236">
        <ele>279.851</ele>
        <time>2017-02-26T10:11:10.403Z</time>
      </trkpt>
      <trkpt lat="43.457" lon="1.5224">
        <ele>280.049</ele>
        <time>2017-02-26T10:11:17.663Z</time>
      </trkpt>
      <trkpt lat="43.45709" lon="1.52244">
        <ele>279.967</ele>
        <time>2017-02-26T10:11:24.777Z</time>
      </trkpt>
      <trkpt lat="43.45717" lon="1.52249">
        <ele>279.812</ele>
        <time>2017-02-26T10:11:33.040Z</time>
      </trkpt>
      <trkpt lat="43.45722" lon="1.52261">
        <ele>279.821</ele>
        <time>2017-02-26T10:11:42.230Z</time>
      </trkpt>
      <trkpt lat="43.4573" lon="1.52268">
        <ele>280.017</ele>
        <time>2017-02-26T10:11:48.865Z</time>
      </trkpt>
      <trkpt lat="43.45736" lon="1.52279">
        <ele>280.238</ele>
        <time>2017-02-26T10:11:55.670Z</time>
      </trkpt>
      <trkpt lat="43.4574" lon="1.52292">
        <ele>280.292</ele>
        <time>2017-02-26T10:12:03.406Z</time>
      </trkpt>
      <trkpt lat="43.45745" lon="1.52303">
        <ele>280.039</ele>
        <time>2017-02-26T10:12:11.811Z</time>
      </trkpt>
      <trkpt lat="43.45752" lon="1.52312">
        <ele>279.325</ele>
        <time>2017-02-26T10:12:22.275Z</time>
      </trkpt>
      <trkpt lat="43.45757" lon="1.52322">
        <ele>277.993</ele>
        <time>2017-02-26T10:12:31.875Z</time>
      </trkpt>
      <trkpt lat="43.45764" lon="1.52333">
        <ele>276.199</ele>
        <time>2017-02-26T10:12:39.546Z</time>
      </trkpt>
      <trkpt lat="43.45766" lon="1.52344">
        <ele>274.422</ele>
        <time>2017-02-26T10:12:46.392Z</time>
      </trkpt>
      <trkpt lat="43.4577" lon="1.52357">
        <ele>272.967</ele>
        <time>2017-02-26T10:12:54.467Z</time>
      </trkpt>
      <trkpt lat="43.45777" lon="1.52366">
        <ele>271.641</ele>
        <time>2017-02-26T10:13:03.602Z</time>
      </trkpt>
      <trkpt lat="43.45785" lon="1.52373">
        <ele>270.101</ele>
        <time>2017-02-26T10:13:11.805Z</time>
      </trkpt>
      <trkpt lat="43.45793" lon="1.5238">
        <ele>268.42</ele>
        <time>2017-02-26T10:13:21.822Z</time>
      </trkpt>
      <trkpt lat="43.458" lon="1.52389">
        <ele>266.767</ele>
        <time>2017-02-26T10:13:31.999Z</time>
      </trkpt>
      <trkpt lat="43.458" lon="1.52389">
        <ele>265.258</ele>
        <time>2017-02-26T10:13:33.999Z</time>
      </trkpt>
      <trkpt lat="43.458" lon="1.52389">
        <ele>264.365</ele>
        <time>2017-02-26T10:13:34.099Z</time>
      </trkpt>
      <trkpt lat="43.45807" lon="1.52397">
        <ele>264.319</ele>
        <time>2017-02-26T10:13:45.527Z</time>
      </trkpt>
      <trkpt lat="43.45813" lon="1.52408">
        <ele>264.181</ele>
        <time>2017-02-26T10:13:53.155Z</time>
      </trkpt>
      <trkpt lat="43.4582" lon="1.52418">
        <ele>263.019</ele>
        <time>2017-02-26T10:14:01.024Z</time>
      </trkpt>
      <trkpt lat="43.45825" lon="1.52428">
        <ele>261.066</ele>
        <time>2017-02-26T10:14:08.651Z</time>
      </trkpt>
      <trkpt lat="43.45833" lon="1.52436">
        <ele>258.973</ele>
        <time>2017-02-26T10:14:16.209Z</time>
      </trkpt>
      <trkpt lat="43.4584" lon="1.52443">
        <ele>257.022</ele>
        <time>2017-02-26T10:14:23.032Z</time>
      </trkpt>
      <trkpt lat="43.45848" lon="1.52451">
        <ele>255.399</ele>
        <time>2017-02-26T10:14:30.684Z</time>
      </trkpt>
      <trkpt lat="43.45856" lon="1.5246">
        <ele>254.141</ele>
        <time>2017-02-26T10:14:38.979Z</time>
      </trkpt>
      <trkpt lat="43.45863" lon="1.5247">
        <ele>253.062</ele>
        <time>2017-02-26T10:14:47.969Z</time>
      </trkpt>
      <trkpt lat="43.45869" lon="1.52479">
        <ele>251.983</ele>
        <time>2017-02-26T10:14:56.917Z</time>
      </trkpt>
      <trkpt lat="43.45877" lon="1.52487">
        <ele>250.827</ele>
        <time>2017-02-26T10:15:05.046Z</time>
      </trkpt>
      <trkpt lat="43.45885" lon="1.52495">
        <ele>249.588</ele>
        <time>2017-02-26T10:15:12.241Z</time>
      </trkpt>
      <trkpt lat="43.45892" lon="1.52503">
        <ele>248.339</ele>
        <time>2017-02-26T10:15:18.714Z</time>
      </trkpt>
      <trkpt lat="43.459" lon="1.52511">
        <ele>247.061</ele>
        <time>2017-02-26T10:15:25.949Z</time>
      </trkpt>
      <trkpt lat="43.45905" lon="1.52522">
        <ele>245.687</ele>
        <time>2017-02-26T10:15:33.712Z</time>
      </trkpt>
      <trkpt lat="43.45912" lon="1.5253">
        <ele>244.3</ele>
        <time>2017-02-26T10:15:41.268Z</time>
      </trkpt>
      <trkpt lat="43.45918" lon="1.5254">
        <ele>242.966</ele>
        <time>2017-02-26T10:15:49.034Z</time>
      </trkpt>
      <trkpt lat="43.45925" lon="1.52547">
        <ele>241.69</ele>
        <time>2017-02-26T10:15:57.791Z</time>
      </trkpt>
      <trkpt lat="43.45931" lon="1.52557">
        <ele>240.593</ele>
        <time>2017-02-26T10:16:07.431Z</time>
      </trkpt>
      <trkpt lat="43.45938" lon="1.52566">
        <ele>239.769</ele>
        <time>2017-02-26T10:16:15.890Z</time>
      </trkpt>
      <trkpt lat="43.45946" lon="1.52575">
        <ele>239.135</ele>
        <time>2017-02-26T10:16:24.274Z</time>
      </trkpt>
      <trkpt lat="43.45951" lon="1.52586">
        <ele>238.576</ele>
        <time>2017-02-26T10:16:30.959Z</time>
      </trkpt>
      <trkpt lat="43.45959" lon="1.52593">
        <ele>238.139</ele>
        <time>2017-02-26T10:16:37.879Z</time>
      </trkpt>
      <trkpt lat="43.45966" lon="1.52602">
        <ele>237.98</ele>
        <time>2017-02-26T10:16:44.768Z</time>
      </trkpt>
      <trkpt lat="43.45975" lon="1.52609">
        <ele>238.172</ele>
        <time>2017-02-26T10:16:52.164Z</time>
      </trkpt>
      <trkpt lat="43.45984" lon="1.52614">
        <ele>238.633</ele>
        <time>2017-02-26T10:16:59.813Z</time>
      </trkpt>
      <trkpt lat="43.45994" lon="1.52617">
        <ele>239.164</ele>
        <time>2017-02-26T10:17:07.942Z</time>
      </trkpt>
      <trkpt lat="43.46004" lon="1.5262">
        <ele>239.444</ele>
        <time>2017-02-26T10:17:15.979Z</time>
      </trkpt>
      <trkpt lat="43.46012" lon="1.52624">
        <ele>239.241</ele>
        <time>2017-02-26T10:17:24.050Z</time>
      </trkpt>
      <trkpt lat="43.46021" lon="1.52626">
        <ele>238.622</ele>
        <time>2017-02-26T10:17:31.690Z</time>
      </trkpt>
      <trkpt lat="43.46031" lon="1.52628">
        <ele>237.763</ele>
        <time>2017-02-26T10:17:39.521Z</time>
      </trkpt>
      <trkpt lat="43.4604" lon="1.52633">
        <ele>236.72</ele>
        <time>2017-02-26T10:17:48.948Z</time>
      </trkpt>
      <trkpt lat="43.46049" lon="1.52637">
        <ele>235.472</ele>
        <time>2017-02-26T10:17:59.000Z</time>
      </trkpt>
      <trkpt lat="43.46049" lon="1.52637">
        <ele>234.271</ele>
        <time>2017-02-26T10:18:08.000Z</time>
      </trkpt>
      <trkpt lat="43.46049" lon="1.52637">
        <ele>233.6</ele>
        <time>2017-02-26T10:18:21.764Z</time>
      </trkpt>
      <trkpt lat="43.46065" lon="1.52649">
        <ele>233.557</ele>
        <time>2017-02-26T10:18:40.000Z</time>
      </trkpt>
      <trkpt lat="43.46065" lon="1.52649">
        <ele>233.683</ele>
        <time>2017-02-26T10:18:49.000Z</time>
      </trkpt>
      <trkpt lat="43.46065" lon="1.52649">
        <ele>233.608</ele>
        <time>2017-02-26T10:19:01.200Z</time>
      </trkpt>
      <trkpt lat="43.46057" lon="1.52643">
        <ele>233.356</ele>
        <time>2017-02-26T10:19:35.000Z</time>
      </trkpt>
      <trkpt lat="43.46057" lon="1.52643">
        <ele>233.32</ele>
        <time>2017-02-26T10:19:47.000Z</time>
      </trkpt>
      <trkpt lat="43.46057" lon="1.52643">
        <ele>233.226</ele>
        <time>2017-02-26T10:19:47.100Z</time>
      </trkpt>
      <trkpt lat="43.46049" lon="1.52636">
        <ele>233.111</ele>
        <time>2017-02-26T10:21:12.199Z</time>
      </trkpt>
      <trkpt lat="43.46058" lon="1.52642">
        <ele>232.55</ele>
        <time>2017-02-26T10:21:31.528Z</time>
      </trkpt>
      <trkpt lat="43.46067" lon="1.52645">
        <ele>230.275</ele>
        <time>2017-02-26T10:21:39.558Z</time>
      </trkpt>
      <trkpt lat="43.46077" lon="1.52648">
        <ele>226.231</ele>
        <time>2017-02-26T10:21:45.777Z</time>
      </trkpt>
      <trkpt lat="43.46087" lon="1.52654">
        <ele>222.293</ele>
        <time>2017-02-26T10:21:51.959Z</time>
      </trkpt>
      <trkpt lat="43.46097" lon="1.52658">
        <ele>219.786</ele>
        <time>2017-02-26T10:21:57.915Z</time>
      </trkpt>
      <trkpt lat="43.46106" lon="1.52661">
        <ele>218.416</ele>
        <time>2017-02-26T10:22:03.588Z</time>
      </trkpt>
      <trkpt lat="43.46116" lon="1.52663">
        <ele>217.47</ele>
        <time>2017-02-26T10:22:10.179Z</time>
      </trkpt>
      <trkpt lat="43.46125" lon="1.52667">
        <ele>216.457</ele>
        <time>2017-02-26T10:22:16.550Z</time>
      </trkpt>
      <trkpt lat="43.46134" lon="1.52674">
        <ele>215.329</ele>
        <time>2017-02-26T10:22:23.333Z</time>
      </trkpt>
      <trkpt lat="43.46143" lon="1.52677">
        <ele>214.21</ele>
        <time>2017-02-26T10:22:30.358Z</time>
      </trkpt>
      <trkpt lat="43.46151" lon="1.52672">
        <ele>213.068</ele>
        <time>2017-02-26T10:22:38.348Z</time>
      </trkpt>
      <trkpt lat="43.46161" lon="1.5267">
        <ele>211.818</ele>
        <time>2017-02-26T10:22:47.731Z</time>
      </trkpt>
      <trkpt lat="43.46172" lon="1.52674">
        <ele>210.541</ele>
        <time>2017-02-26T10:22:59.170Z</time>
      </trkpt>
      <trkpt lat="43.4618" lon="1.5268">
        <ele>209.339</ele>
        <time>2017-02-26T10:23:10.485Z</time>
      </trkpt>
      <trkpt lat="43.46188" lon="1.52687">
        <ele>208.087</ele>
        <time>2017-02-26T10:23:20.604Z</time>
      </trkpt>
      <trkpt lat="43.46197" lon="1.52692">
        <ele>206.624</ele>
        <time>2017-02-26T10:23:29.122Z</time>
      </trkpt>
      <trkpt lat="43.46206" lon="1.52697">
        <ele>205.132</ele>
        <time>2017-02-26T10:23:38.147Z</time>
      </trkpt>
      <trkpt lat="43.46215" lon="1.52701">
        <ele>203.769</ele>
        <time>2017-02-26T10:23:45.918Z</time>
      </trkpt>
      <trkpt lat="43.46224" lon="1.527">
        <ele>202.468</ele>
        <time>2017-02-26T10:23:52.658Z</time>
      </trkpt>
      <trkpt lat="43.46234" lon="1.52701">
        <ele>201.199</ele>
        <time>2017-02-26T10:23:59.085Z</time>
      </trkpt>
      <trkpt lat="43.46243" lon="1.52704">
        <ele>199.977</ele>
        <time>2017-02-26T10:24:05.008Z</time>
      </trkpt>
      <trkpt lat="43.46253" lon="1.52709">
        <ele>198.841</ele>
        <time>2017-02-26T10:24:11.277Z</time>
      </trkpt>
      <trkpt lat="43.46261" lon="1.52715">
        <ele>197.848</ele>
        <time>2017-02-26T10:24:16.767Z</time>
      </trkpt>
      <trkpt lat="43.46269" lon="1.52723">
        <ele>196.922</ele>
        <time>2017-02-26T10:24:23.017Z</time>
      </trkpt>
      <trkpt lat="43.46273" lon="1.52736">
        <ele>195.862</ele>
        <time>2017-02-26T10:24:29.843Z</time>
      </trkpt>
      <trkpt lat="43.46279" lon="1.52745">
        <ele>194.537</ele>
        <time>2017-02-26T10:24:35.689Z</time>
      </trkpt>
      <trkpt lat="43.46286" lon="1.52755">
        <ele>193.139</ele>
        <time>2017-02-26T10:24:41.599Z</time>
      </trkpt>
      <trkpt lat="43.46289" lon="1.52768">
        <ele>191.979</ele>
        <time>2017-02-26T10:24:47.850Z</time>
      </trkpt>
      <trkpt lat="43.46294" lon="1.52779">
        <ele>191.179</ele>
        <time>2017-02-26T10:24:54.208Z</time>
      </trkpt>
      <trkpt lat="43.46301" lon="1.52786">
        <ele>190.734</ele>
        <time>2017-02-26T10:25:01.790Z</time>
      </trkpt>
      <trkpt lat="43.4631" lon="1.5278">
        <ele>190.577</ele>
        <time>2017-02-26T10:25:11.714Z</time>
      </trkpt>
      <trkpt lat="43.46317" lon="1.52771">
        <ele>190.631</ele>
        <time>2017-02-26T10:25:21.144Z</time>
      </trkpt>
      <trkpt lat="43.46321" lon="1.52759">
        <ele>190.941</ele>
        <time>2017-02-26T10:25:30.574Z</time>
      </trkpt>
      <trkpt lat="43.46324" lon="1.52746">
        <ele>191.629</ele>
        <time>2017-02-26T10:25:40.283Z</time>
      </trkpt>
      <trkpt lat="43.46328" lon="1.52734">
        <ele>192.761</ele>
        <time>2017-02-26T10:25:49.745Z</time>
      </trkpt>
      <trkpt lat="43.46333" lon="1.52723">
        <ele>194.29</ele>
        <time>2017-02-26T10:25:59.896Z</time>
      </trkpt>
      <trkpt lat="43.46337" lon="1.52711">
        <ele>195.993</ele>
        <time>2017-02-26T10:26:09.660Z</time>
      </trkpt>
      <trkpt lat="43.46341" lon="1.52699">
        <ele>197.554</ele>
        <time>2017-02-26T10:26:18.852Z</time>
      </trkpt>
      <trkpt lat="43.46344" lon="1.52687">
        <ele>198.867</ele>
        <time>2017-02-26T10:26:30.080Z</time>
      </trkpt>
      <trkpt lat="43.46348" lon="1.52675">
        <ele>200.141</ele>
        <time>2017-02-26T10:26:42.037Z</time>
      </trkpt>
      <trkpt lat="43.46351" lon="1.52664">
        <ele>201.612</ele>
        <time>2017-02-26T10:26:55.427Z</time>
      </trkpt>
      <trkpt lat="43.46356" lon="1.52652">
        <ele>203.26</ele>
        <time>2017-02-26T10:27:10.159Z</time>
      </trkpt>
      <trkpt lat="43.46362" lon="1.52642">
        <ele>204.946</ele>
        <time>2017-02-26T10:27:22.820Z</time>
      </trkpt>
      <trkpt lat="43.46368" lon="1.52632">
        <ele>206.597</ele>
        <time>2017-02-26T10:27:36.682Z</time>
      </trkpt>
      <trkpt lat="43.46374" lon="1.52621">
        <ele>208.199</ele>
        <time>2017-02-26T10:27:50.691Z</time>
      </trkpt>
      <trkpt lat="43.46378" lon="1.5261">
        <ele>209.809</ele>
        <time>2017-02-26T10:28:01.438Z</time>
      </trkpt>
      <trkpt lat="43.46386" lon="1.52603">
        <ele>211.381</ele>
        <time>2017-02-26T10:28:11.775Z</time>
      </trkpt>
      <trkpt lat="43.46394" lon="1.52594">
        <ele>212.846</ele>
        <time>2017-02-26T10:28:22.045Z</time>
      </trkpt>
      <trkpt lat="43.46402" lon="1.52587">
        <ele>214.34</ele>
        <time>2017-02-26T10:28:32.985Z</time>
      </trkpt>
      <trkpt lat="43.4641" lon="1.52581">
        <ele>216.046</ele>
        <time>2017-02-26T10:28:43.955Z</time>
      </trkpt>
      <trkpt lat="43.46414" lon="1.5257">
        <ele>217.922</ele>
        <time>2017-02-26T10:28:54.369Z</time>
      </trkpt>
      <trkpt lat="43.4642" lon="1.52561">
        <ele>219.836</ele>
        <time>2017-02-26T10:29:06.474Z</time>
      </trkpt>
      <trkpt lat="43.46427" lon="1.52551">
        <ele>221.709</ele>
        <time>2017-02-26T10:29:19.916Z</time>
      </trkpt>
      <trkpt lat="43.46435" lon="1.52545">
        <ele>223.55</ele>
        <time>2017-02-26T10:29:30.682Z</time>
      </trkpt>
      <trkpt lat="43.46443" lon="1.52537">
        <ele>225.256</ele>
        <time>2017-02-26T10:29:42.150Z</time>
      </trkpt>
      <trkpt lat="43.4645" lon="1.5253">
        <ele>226.694</ele>
        <time>2017-02-26T10:29:53.904Z</time>
      </trkpt>
      <trkpt lat="43.46458" lon="1.52523">
        <ele>227.816</ele>
        <time>2017-02-26T10:30:03.808Z</time>
      </trkpt>
      <trkpt lat="43.46466" lon="1.52516">
        <ele>228.684</ele>
        <time>2017-02-26T10:30:13.407Z</time>
      </trkpt>
      <trkpt lat="43.46473" lon="1.52508">
        <ele>229.581</ele>
        <time>2017-02-26T10:30:23.657Z</time>
      </trkpt>
      <trkpt lat="43.4648" lon="1.525">
        <ele>230.881</ele>
        <time>2017-02-26T10:30:34.730Z</time>
      </trkpt>
      <trkpt lat="43.46487" lon="1.52492">
        <ele>232.513</ele>
        <time>2017-02-26T10:30:45.598Z</time>
      </trkpt>
      <trkpt lat="43.46495" lon="1.52486">
        <ele>233.998</ele>
        <time>2017-02-26T10:30:54.908Z</time>
      </trkpt>
      <trkpt lat="43.46503" lon="1.52477">
        <ele>235.064</ele>
        <time>2017-02-26T10:31:04.914Z</time>
      </trkpt>
      <trkpt lat="43.4651" lon="1.52469">
        <ele>235.94</ele>
        <time>2017-02-26T10:31:16.305Z</time>
      </trkpt>
      <trkpt lat="43.46517" lon="1.52461">
        <ele>236.913</ele>
        <time>2017-02-26T10:31:26.879Z</time>
      </trkpt>
      <trkpt lat="43.46525" lon="1.52452">
        <ele>238.085</ele>
        <time>2017-02-26T10:31:38.447Z</time>
      </trkpt>
      <trkpt lat="43.46533" lon="1.52445">
        <ele>239.49</ele>
        <time>2017-02-26T10:31:49.417Z</time>
      </trkpt>
      <trkpt lat="43.4654" lon="1.52435">
        <ele>241.15</ele>
        <time>2017-02-26T10:32:00.757Z</time>
      </trkpt>
      <trkpt lat="43.46547" lon="1.52428">
        <ele>243.007</ele>
        <time>2017-02-26T10:32:12.999Z</time>
      </trkpt>
      <trkpt lat="43.46547" lon="1.52428">
        <ele>244.669</ele>
        <time>2017-02-26T10:32:21.999Z</time>
      </trkpt>
      <trkpt lat="43.46547" lon="1.52428">
        <ele>245.466</ele>
        <time>2017-02-26T10:33:22.222Z</time>
      </trkpt>
      <trkpt lat="43.46557" lon="1.52422">
        <ele>245.284</ele>
        <time>2017-02-26T10:34:04.785Z</time>
      </trkpt>
      <trkpt lat="43.46565" lon="1.52415">
        <ele>245.724</ele>
        <time>2017-02-26T10:34:15.999Z</time>
      </trkpt>
      <trkpt lat="43.46565" lon="1.52415">
        <ele>247.901</ele>
        <time>2017-02-26T10:34:25.999Z</time>
      </trkpt>
      <trkpt lat="43.46565" lon="1.52415">
        <ele>249.86</ele>
        <time>2017-02-26T10:34:26.099Z</time>
      </trkpt>
      <trkpt lat="43.46576" lon="1.52405">
        <ele>249.745</ele>
        <time>2017-02-26T10:34:45.087Z</time>
      </trkpt>
      <trkpt lat="43.46584" lon="1.52398">
        <ele>249.503</ele>
        <time>2017-02-26T10:34:54.156Z</time>
      </trkpt>
      <trkpt lat="43.46591" lon="1.52389">
        <ele>251.281</ele>
        <time>2017-02-26T10:35:02.915Z</time>
      </trkpt>
      <trkpt lat="43.46597" lon="1.52379">
        <ele>254.021</ele>
        <time>2017-02-26T10:35:11.679Z</time>
      </trkpt>
      <trkpt lat="43.46603" lon="1.52368">
        <ele>255.849</ele>
        <time>2017-02-26T10:35:20.426Z</time>
      </trkpt>
      <trkpt lat="43.46609" lon="1.52358">
        <ele>256.611</ele>
        <time>2017-02-26T10:35:27.833Z</time>
      </trkpt>
      <trkpt lat="43.46614" lon="1.52346">
        <ele>256.913</ele>
        <time>2017-02-26T10:35:36.421Z</time>
      </trkpt>
      <trkpt lat="43.4662" lon="1.52335">
        <ele>257.24</ele>
        <time>2017-02-26T10:35:45.322Z</time>
      </trkpt>
      <trkpt lat="43.46624" lon="1.52323">
        <ele>257.907</ele>
        <time>2017-02-26T10:35:53.377Z</time>
      </trkpt>
      <trkpt lat="43.46626" lon="1.52311">
        <ele>258.997</ele>
        <time>2017-02-26T10:36:01.352Z</time>
      </trkpt>
      <trkpt lat="43.46632" lon="1.523">
        <ele>260.203</ele>
        <time>2017-02-26T10:36:09.625Z</time>
      </trkpt>
      <trkpt lat="43.46634" lon="1.52287">
        <ele>261.338</ele>
        <time>2017-02-26T10:36:18.034Z</time>
      </trkpt>
      <trkpt lat="43.46637" lon="1.52274">
        <ele>262.453</ele>
        <time>2017-02-26T10:36:26.019Z</time>
      </trkpt>
      <trkpt lat="43.4664" lon="1.52263">
        <ele>263.4</ele>
        <time>2017-02-26T10:36:36.045Z</time>
      </trkpt>
      <trkpt lat="43.46644" lon="1.52251">
        <ele>264.072</ele>
        <time>2017-02-26T10:36:46.311Z</time>
      </trkpt>
      <trkpt lat="43.46645" lon="1.52238">
        <ele>264.625</ele>
        <time>2017-02-26T10:36:54.926Z</time>
      </trkpt>
      <trkpt lat="43.46649" lon="1.52225">
        <ele>265.149</ele>
        <time>2017-02-26T10:37:04.043Z</time>
      </trkpt>
      <trkpt lat="43.46653" lon="1.52213">
        <ele>265.65</ele>
        <time>2017-02-26T10:37:14.068Z</time>
      </trkpt>
      <trkpt lat="43.46656" lon="1.52201">
        <ele>266.238</ele>
        <time>2017-02-26T10:37:23.114Z</time>
      </trkpt>
      <trkpt lat="43.4666" lon="1.52189">
        <ele>266.991</ele>
        <time>2017-02-26T10:37:31.390Z</time>
      </trkpt>
      <trkpt lat="43.46665" lon="1.52177">
        <ele>267.803</ele>
        <time>2017-02-26T10:37:40.301Z</time>
      </trkpt>
      <trkpt lat="43.46669" lon="1.52166">
        <ele>268.508</ele>
        <time>2017-02-26T10:37:48.206Z</time>
      </trkpt>
      <trkpt lat="43.46671" lon="1.52152">
        <ele>269.129</ele>
        <time>2017-02-26T10:37:55.930Z</time>
      </trkpt>
      <trkpt lat="43.46675" lon="1.5214">
        <ele>269.742</ele>
        <time>2017-02-26T10:38:02.615Z</time>
      </trkpt>
      <trkpt lat="43.46678" lon="1.52127">
        <ele>270.299</ele>
        <time>2017-02-26T10:38:10.113Z</time>
      </trkpt>
      <trkpt lat="43.46681" lon="1.52114">
        <ele>270.798</ele>
        <time>2017-02-26T10:38:18.308Z</time>
      </trkpt>
      <trkpt lat="43.46684" lon="1.52101">
        <ele>271.279</ele>
        <time>2017-02-26T10:38:27.205Z</time>
      </trkpt>
      <trkpt lat="43.46688" lon="1.52089">
        <ele>271.698</ele>
        <time>2017-02-26T10:38:35.741Z</time>
      </trkpt>
      <trkpt lat="43.46691" lon="1.52077">
        <ele>272.075</ele>
        <time>2017-02-26T10:38:44.143Z</time>
      </trkpt>
      <trkpt lat="43.46694" lon="1.52064">
        <ele>272.505</ele>
        <time>2017-02-26T10:38:52.252Z</time>
      </trkpt>
      <trkpt lat="43.46699" lon="1.52052">
        <ele>273.059</ele>
        <time>2017-02-26T10:38:59.790Z</time>
      </trkpt>
      <trkpt lat="43.46702" lon="1.52039">
        <ele>273.772</ele>
        <time>2017-02-26T10:39:07.851Z</time>
      </trkpt>
      <trkpt lat="43.46705" lon="1.52026">
        <ele>274.62</ele>
        <time>2017-02-26T10:39:15.538Z</time>
      </trkpt>
      <trkpt lat="43.46709" lon="1.52014">
        <ele>275.562</ele>
        <time>2017-02-26T10:39:22.749Z</time>
      </trkpt>
      <trkpt lat="43.46712" lon="1.52001">
        <ele>276.47</ele>
        <time>2017-02-26T10:39:31.297Z</time>
      </trkpt>
      <trkpt lat="43.46717" lon="1.51988">
        <ele>277.112</ele>
        <time>2017-02-26T10:39:40.546Z</time>
      </trkpt>
      <trkpt lat="43.46721" lon="1.51976">
        <ele>277.462</ele>
        <time>2017-02-26T10:39:48.947Z</time>
      </trkpt>
      <trkpt lat="43.46726" lon="1.51964">
        <ele>277.682</ele>
        <time>2017-02-26T10:39:56.926Z</time>
      </trkpt>
      <trkpt lat="43.46732" lon="1.51955">
        <ele>277.807</ele>
        <time>2017-02-26T10:40:04.750Z</time>
      </trkpt>
      <trkpt lat="43.46739" lon="1.51944">
        <ele>277.77</ele>
        <time>2017-02-26T10:40:13.688Z</time>
      </trkpt>
      <trkpt lat="43.46746" lon="1.51935">
        <ele>277.61</ele>
        <time>2017-02-26T10:40:21.986Z</time>
      </trkpt>
      <trkpt lat="43.46753" lon="1.51925">
        <ele>277.406</ele>
        <time>2017-02-26T10:40:29.789Z</time>
      </trkpt>
      <trkpt lat="43.46759" lon="1.51915">
        <ele>277.2</ele>
        <time>2017-02-26T10:40:37.969Z</time>
      </trkpt>
      <trkpt lat="43.46766" lon="1.51905">
        <ele>276.952</ele>
        <time>2017-02-26T10:40:46.629Z</time>
      </trkpt>
      <trkpt lat="43.46773" lon="1.51894">
        <ele>276.582</ele>
        <time>2017-02-26T10:40:55.438Z</time>
      </trkpt>
      <trkpt lat="43.46779" lon="1.51884">
        <ele>276.106</ele>
        <time>2017-02-26T10:41:03.642Z</time>
      </trkpt>
      <trkpt lat="43.46785" lon="1.51875">
        <ele>275.579</ele>
        <time>2017-02-26T10:41:11.428Z</time>
      </trkpt>
      <trkpt lat="43.46792" lon="1.51866">
        <ele>274.973</ele>
        <time>2017-02-26T10:41:19.147Z</time>
      </trkpt>
      <trkpt lat="43.46799" lon="1.51857">
        <ele>274.329</ele>
        <time>2017-02-26T10:41:26.610Z</time>
      </trkpt>
      <trkpt lat="43.46806" lon="1.51847">
        <ele>273.778</ele>
        <time>2017-02-26T10:41:34.001Z</time>
      </trkpt>
      <trkpt lat="43.46813" lon="1.51838">
        <ele>273.386</ele>
        <time>2017-02-26T10:41:41.205Z</time>
      </trkpt>
      <trkpt lat="43.4682" lon="1.51829">
        <ele>273.135</ele>
        <time>2017-02-26T10:41:49.251Z</time>
      </trkpt>
      <trkpt lat="43.46828" lon="1.51819">
        <ele>272.884</ele>
        <time>2017-02-26T10:41:57.115Z</time>
      </trkpt>
      <trkpt lat="43.46834" lon="1.5181">
        <ele>272.508</ele>
        <time>2017-02-26T10:42:04.335Z</time>
      </trkpt>
      <trkpt lat="43.4684" lon="1.518">
        <ele>271.99</ele>
        <time>2017-02-26T10:42:12.081Z</time>
      </trkpt>
      <trkpt lat="43.46846" lon="1.5179">
        <ele>271.337</ele>
        <time>2017-02-26T10:42:19.058Z</time>
      </trkpt>
      <trkpt lat="43.46851" lon="1.51779">
        <ele>270.608</ele>
        <time>2017-02-26T10:42:25.391Z</time>
      </trkpt>
      <trkpt lat="43.46856" lon="1.51768">
        <ele>269.984</ele>
        <time>2017-02-26T10:42:32.000Z</time>
      </trkpt>
      <trkpt lat="43.46856" lon="1.51768">
        <ele>269.626</ele>
        <time>2017-02-26T10:42:35.000Z</time>
      </trkpt>
      <trkpt lat="43.46856" lon="1.51768">
        <ele>269.485</ele>
        <time>2017-02-26T10:42:41.523Z</time>
      </trkpt>
      <trkpt lat="43.46861" lon="1.51758">
        <ele>269.33</ele>
        <time>2017-02-26T10:42:54.998Z</time>
      </trkpt>
      <trkpt lat="43.46864" lon="1.51745">
        <ele>269.203</ele>
        <time>2017-02-26T10:43:03.623Z</time>
      </trkpt>
      <trkpt lat="43.4687" lon="1.51734">
        <ele>268.853</ele>
        <time>2017-02-26T10:43:12.086Z</time>
      </trkpt>
      <trkpt lat="43.46874" lon="1.51722">
        <ele>268.275</ele>
        <time>2017-02-26T10:43:19.924Z</time>
      </trkpt>
      <trkpt lat="43.46878" lon="1.5171">
        <ele>267.666</ele>
        <time>2017-02-26T10:43:27.520Z</time>
      </trkpt>
      <trkpt lat="43.46883" lon="1.51699">
        <ele>267.176</ele>
        <time>2017-02-26T10:43:34.565Z</time>
      </trkpt>
      <trkpt lat="43.46888" lon="1.51687">
        <ele>266.738</ele>
        <time>2017-02-26T10:43:41.628Z</time>
      </trkpt>
      <trkpt lat="43.46892" lon="1.51676">
        <ele>266.224</ele>
        <time>2017-02-26T10:43:48.546Z</time>
      </trkpt>
      <trkpt lat="43.46895" lon="1.51663">
        <ele>265.69</ele>
        <time>2017-02-26T10:43:56.001Z</time>
      </trkpt>
      <trkpt lat="43.46897" lon="1.5165">
        <ele>265.162</ele>
        <time>2017-02-26T10:44:02.943Z</time>
      </trkpt>
      <trkpt lat="43.46899" lon="1.51638">
        <ele>264.523</ele>
        <time>2017-02-26T10:44:09.806Z</time>
      </trkpt>
      <trkpt lat="43.46903" lon="1.51626">
        <ele>263.754</ele>
        <time>2017-02-26T10:44:17.456Z</time>
      </trkpt>
      <trkpt lat="43.46909" lon="1.51615">
        <ele>262.962</ele>
        <time>2017-02-26T10:44:26.105Z</time>
      </trkpt>
      <trkpt lat="43.46913" lon="1.51603">
        <ele>262.214</ele>
        <time>2017-02-26T10:44:34.115Z</time>
      </trkpt>
      <trkpt lat="43.46916" lon="1.51591">
        <ele>261.516</ele>
        <time>2017-02-26T10:44:42.155Z</time>
      </trkpt>
      <trkpt lat="43.4692" lon="1.51578">
        <ele>260.839</ele>
        <time>2017-02-26T10:44:52.000Z</time>
      </trkpt>
      <trkpt lat="43.4692" lon="1.51578">
        <ele>260.275</ele>
        <time>2017-02-26T10:44:55.000Z</time>
      </trkpt>
      <trkpt lat="43.4692" lon="1.51578">
        <ele>259.961</ele>
        <time>2017-02-26T10:44:55.100Z</time>
      </trkpt>
      <trkpt lat="43.46931" lon="1.51569">
        <ele>259.881</ele>
        <time>2017-02-26T10:45:06.000Z</time>
      </trkpt>
      <trkpt lat="43.46931" lon="1.51569">
        <ele>259.854</ele>
        <time>2017-02-26T10:45:08.000Z</time>
      </trkpt>
      <trkpt lat="43.46931" lon="1.51569">
        <ele>259.752</ele>
        <time>2017-02-26T10:46:44.391Z</time>
      </trkpt>
      <trkpt lat="43.46944" lon="1.51575">
        <ele>259.626</ele>
        <time>2017-02-26T10:47:03.151Z</time>
      </trkpt>
      <trkpt lat="43.46953" lon="1.51576">
        <ele>259.72</ele>
        <time>2017-02-26T10:47:09.990Z</time>
      </trkpt>
      <trkpt lat="43.46963" lon="1.51577">
        <ele>260.121</ele>
        <time>2017-02-26T10:47:16.000Z</time>
      </trkpt>
      <trkpt lat="43.46963" lon="1.51577">
        <ele>260.553</ele>
        <time>2017-02-26T10:47:23.000Z</time>
      </trkpt>
      <trkpt lat="43.46963" lon="1.51577">
        <ele>260.7</ele>
        <time>2017-02-26T10:47:23.100Z</time>
      </trkpt>
      <trkpt lat="43.46975" lon="1.51575">
        <ele>260.568</ele>
        <time>2017-02-26T10:47:40.526Z</time>
      </trkpt>
      <trkpt lat="43.46984" lon="1.51573">
        <ele>260.496</ele>
        <time>2017-02-26T10:47:50.315Z</time>
      </trkpt>
      <trkpt lat="43.46993" lon="1.51571">
        <ele>260.789</ele>
        <time>2017-02-26T10:47:58.901Z</time>
      </trkpt>
      <trkpt lat="43.47002" lon="1.51568">
        <ele>261.303</ele>
        <time>2017-02-26T10:48:05.908Z</time>
      </trkpt>
      <trkpt lat="43.4701" lon="1.51564">
        <ele>261.755</ele>
        <time>2017-02-26T10:48:12.367Z</time>
      </trkpt>
      <trkpt lat="43.4702" lon="1.51559">
        <ele>262.068</ele>
        <time>2017-02-26T10:48:19.180Z</time>
      </trkpt>
      <trkpt lat="43.47027" lon="1.5155">
        <ele>262.352</ele>
        <time>2017-02-26T10:48:26.777Z</time>
      </trkpt>
      <trkpt lat="43.47034" lon="1.51541">
        <ele>262.75</ele>
        <time>2017-02-26T10:48:34.850Z</time>
      </trkpt>
      <trkpt lat="43.47038" lon="1.5153">
        <ele>263.259</ele>
        <time>2017-02-26T10:48:43.514Z</time>
      </trkpt>
      <trkpt lat="43.47044" lon="1.51519">
        <ele>263.776</ele>
        <time>2017-02-26T10:48:50.603Z</time>
      </trkpt>
      <trkpt lat="43.4705" lon="1.5151">
        <ele>264.255</ele>
        <time>2017-02-26T10:48:57.000Z</time>
      </trkpt>
      <trkpt lat="43.4705" lon="1.5151">
        <ele>264.639</ele>
        <time>2017-02-26T10:49:06.000Z</time>
      </trkpt>
      <trkpt lat="43.4705" lon="1.5151">
        <ele>264.784</ele>
        <time>2017-02-26T10:49:06.100Z</time>
      </trkpt>
      <trkpt lat="43.47057" lon="1.51493">
        <ele>264.655</ele>
        <time>2017-02-26T10:49:24.572Z</time>
      </trkpt>
      <trkpt lat="43.47063" lon="1.51482">
        <ele>264.752</ele>
        <time>2017-02-26T10:49:32.741Z</time>
      </trkpt>
      <trkpt lat="43.47069" lon="1.51472">
        <ele>265.439</ele>
        <time>2017-02-26T10:49:40.384Z</time>
      </trkpt>
      <trkpt lat="43.47074" lon="1.51461">
        <ele>266.261</ele>
        <time>2017-02-26T10:49:48.337Z</time>
      </trkpt>
      <trkpt lat="43.47079" lon="1.5145">
        <ele>266.727</ele>
        <time>2017-02-26T10:49:55.499Z</time>
      </trkpt>
      <trkpt lat="43.47084" lon="1.51438">
        <ele>266.918</ele>
        <time>2017-02-26T10:50:03.367Z</time>
      </trkpt>
      <trkpt lat="43.47088" lon="1.51426">
        <ele>267.057</ele>
        <time>2017-02-26T10:50:10.642Z</time>
      </trkpt>
      <trkpt lat="43.47094" lon="1.51416">
        <ele>267.292</ele>
        <time>2017-02-26T10:50:16.779Z</time>
      </trkpt>
      <trkpt lat="43.47101" lon="1.51406">
        <ele>267.659</ele>
        <time>2017-02-26T10:50:23.066Z</time>
      </trkpt>
      <trkpt lat="43.47107" lon="1.51396">
        <ele>268.114</ele>
        <time>2017-02-26T10:50:29.683Z</time>
      </trkpt>
      <trkpt lat="43.47111" lon="1.51385">
        <ele>268.544</ele>
        <time>2017-02-26T10:50:37.207Z</time>
      </trkpt>
      <trkpt lat="43.47117" lon="1.51373">
        <ele>268.839</ele>
        <time>2017-02-26T10:50:45.787Z</time>
      </trkpt>
      <trkpt lat="43.47121" lon="1.51361">
        <ele>269.032</ele>
        <time>2017-02-26T10:50:52.468Z</time>
      </trkpt>
      <trkpt lat="43.47127" lon="1.51352">
        <ele>269.213</ele>
        <time>2017-02-26T10:50:59.904Z</time>
      </trkpt>
      <trkpt lat="43.4713" lon="1.5134">
        <ele>269.368</ele>
        <time>2017-02-26T10:51:08.963Z</time>
      </trkpt>
      <trkpt lat="43.47132" lon="1.51326">
        <ele>269.458</ele>
        <time>2017-02-26T10:51:18.994Z</time>
      </trkpt>
      <trkpt lat="43.47135" lon="1.51314">
        <ele>269.498</ele>
        <time>2017-02-26T10:51:26.747Z</time>
      </trkpt>
      <trkpt lat="43.47138" lon="1.51302">
        <ele>269.517</ele>
        <time>2017-02-26T10:51:34.603Z</time>
      </trkpt>
      <trkpt lat="43.47141" lon="1.51289">
        <ele>269.537</ele>
        <time>2017-02-26T10:51:41.939Z</time>
      </trkpt>
      <trkpt lat="43.47147" lon="1.51279">
        <ele>269.597</ele>
        <time>2017-02-26T10:51:48.553Z</time>
      </trkpt>
      <trkpt lat="43.47154" lon="1.51271">
        <ele>269.748</ele>
        <time>2017-02-26T10:51:55.508Z</time>
      </trkpt>
      <trkpt lat="43.4716" lon="1.51261">
        <ele>269.967</ele>
        <time>2017-02-26T10:52:02.817Z</time>
      </trkpt>
      <trkpt lat="43.47168" lon="1.51251">
        <ele>270.15</ele>
        <time>2017-02-26T10:52:11.181Z</time>
      </trkpt>
      <trkpt lat="43.47175" lon="1.51243">
        <ele>270.236</ele>
        <time>2017-02-26T10:52:19.178Z</time>
      </trkpt>
      <trkpt lat="43.47185" lon="1.51237">
        <ele>270.239</ele>
        <time>2017-02-26T10:52:27.468Z</time>
      </trkpt>
      <trkpt lat="43.47194" lon="1.51231">
        <ele>270.197</ele>
        <time>2017-02-26T10:52:34.796Z</time>
      </trkpt>
      <trkpt lat="43.47202" lon="1.51225">
        <ele>270.123</ele>
        <time>2017-02-26T10:52:42.113Z</time>
      </trkpt>
      <trkpt lat="43.4721" lon="1.51219">
        <ele>270.022</ele>
        <time>2017-02-26T10:52:49.384Z</time>
      </trkpt>
      <trkpt lat="43.47217" lon="1.51211">
        <ele>269.92</ele>
        <time>2017-02-26T10:52:56.406Z</time>
      </trkpt>
      <trkpt lat="43.47225" lon="1.51204">
        <ele>269.846</ele>
        <time>2017-02-26T10:53:03.792Z</time>
      </trkpt>
      <trkpt lat="43.47235" lon="1.51199">
        <ele>269.809</ele>
        <time>2017-02-26T10:53:10.996Z</time>
      </trkpt>
      <trkpt lat="43.47244" lon="1.51194">
        <ele>269.79</ele>
        <time>2017-02-26T10:53:17.650Z</time>
      </trkpt>
      <trkpt lat="43.47249" lon="1.51183">
        <ele>269.764</ele>
        <time>2017-02-26T10:53:24.942Z</time>
      </trkpt>
      <trkpt lat="43.47255" lon="1.51174">
        <ele>269.759</ele>
        <time>2017-02-26T10:53:32.258Z</time>
      </trkpt>
      <trkpt lat="43.47263" lon="1.51167">
        <ele>269.853</ele>
        <time>2017-02-26T10:53:39.654Z</time>
      </trkpt>
      <trkpt lat="43.47273" lon="1.51162">
        <ele>270.045</ele>
        <time>2017-02-26T10:53:47.552Z</time>
      </trkpt>
      <trkpt lat="43.47283" lon="1.51157">
        <ele>270.223</ele>
        <time>2017-02-26T10:53:54.908Z</time>
      </trkpt>
      <trkpt lat="43.47291" lon="1.5115">
        <ele>270.29</ele>
        <time>2017-02-26T10:54:02.203Z</time>
      </trkpt>
      <trkpt lat="43.47299" lon="1.51142">
        <ele>270.203</ele>
        <time>2017-02-26T10:54:09.608Z</time>
      </trkpt>
      <trkpt lat="43.47306" lon="1.51133">
        <ele>269.971</ele>
        <time>2017-02-26T10:54:17.924Z</time>
      </trkpt>
      <trkpt lat="43.47313" lon="1.51125">
        <ele>269.647</ele>
        <time>2017-02-26T10:54:25.864Z</time>
      </trkpt>
      <trkpt lat="43.4732" lon="1.51115">
        <ele>269.292</ele>
        <time>2017-02-26T10:54:33.740Z</time>
      </trkpt>
      <trkpt lat="43.47326" lon="1.51106">
        <ele>268.974</ele>
        <time>2017-02-26T10:54:41.387Z</time>
      </trkpt>
      <trkpt lat="43.47335" lon="1.51099">
        <ele>268.751</ele>
        <time>2017-02-26T10:54:49.143Z</time>
      </trkpt>
      <trkpt lat="43.47343" lon="1.51091">
        <ele>268.642</ele>
        <time>2017-02-26T10:54:56.381Z</time>
      </trkpt>
      <trkpt lat="43.47352" lon="1.51085">
        <ele>268.632</ele>
        <time>2017-02-26T10:55:03.624Z</time>
      </trkpt>
      <trkpt lat="43.4736" lon="1.51075">
        <ele>268.681</ele>
        <time>2017-02-26T10:55:11.233Z</time>
      </trkpt>
      <trkpt lat="43.47369" lon="1.51071">
        <ele>268.792</ele>
        <time>2017-02-26T10:55:18.333Z</time>
      </trkpt>
      <trkpt lat="43.47377" lon="1.51061">
        <ele>268.976</ele>
        <time>2017-02-26T10:55:26.105Z</time>
      </trkpt>
      <trkpt lat="43.47383" lon="1.51052">
        <ele>269.197</ele>
        <time>2017-02-26T10:55:34.367Z</time>
      </trkpt>
      <trkpt lat="43.47393" lon="1.51046">
        <ele>269.408</ele>
        <time>2017-02-26T10:55:43.483Z</time>
      </trkpt>
      <trkpt lat="43.474" lon="1.51036">
        <ele>269.579</ele>
        <time>2017-02-26T10:55:51.820Z</time>
      </trkpt>
      <trkpt lat="43.47406" lon="1.51027">
        <ele>269.707</ele>
        <time>2017-02-26T10:56:00.613Z</time>
      </trkpt>
      <trkpt lat="43.47415" lon="1.51021">
        <ele>269.8</ele>
        <time>2017-02-26T10:56:08.594Z</time>
      </trkpt>
      <trkpt lat="43.47425" lon="1.51015">
        <ele>269.829</ele>
        <time>2017-02-26T10:56:15.248Z</time>
      </trkpt>
      <trkpt lat="43.47435" lon="1.51011">
        <ele>269.773</ele>
        <time>2017-02-26T10:56:21.229Z</time>
      </trkpt>
      <trkpt lat="43.47444" lon="1.51006">
        <ele>269.664</ele>
        <time>2017-02-26T10:56:27.019Z</time>
      </trkpt>
      <trkpt lat="43.47449" lon="1.50995">
        <ele>269.567</ele>
        <time>2017-02-26T10:56:33.000Z</time>
      </trkpt>
      <trkpt lat="43.47449" lon="1.50995">
        <ele>269.517</ele>
        <time>2017-02-26T10:56:49.000Z</time>
      </trkpt>
      <trkpt lat="43.47449" lon="1.50995">
        <ele>269.47</ele>
        <time>2017-02-26T10:57:23.639Z</time>
      </trkpt>
      <trkpt lat="43.4746" lon="1.50982">
        <ele>269.38</ele>
        <time>2017-02-26T10:57:53.521Z</time>
      </trkpt>
      <trkpt lat="43.47467" lon="1.50974">
        <ele>269.429</ele>
        <time>2017-02-26T10:58:03.477Z</time>
      </trkpt>
      <trkpt lat="43.47474" lon="1.50965">
        <ele>269.822</ele>
        <time>2017-02-26T10:58:11.878Z</time>
      </trkpt>
      <trkpt lat="43.47481" lon="1.50955">
        <ele>270.46</ele>
        <time>2017-02-26T10:58:19.795Z</time>
      </trkpt>
      <trkpt lat="43.47488" lon="1.50947">
        <ele>271.118</ele>
        <time>2017-02-26T10:58:28.054Z</time>
      </trkpt>
      <trkpt lat="43.47491" lon="1.50935">
        <ele>271.673</ele>
        <time>2017-02-26T10:58:38.999Z</time>
      </trkpt>
      <trkpt lat="43.47497" lon="1.50926">
        <ele>272.059</ele>
        <time>2017-02-26T10:58:48.954Z</time>
      </trkpt>
      <trkpt lat="43.47503" lon="1.50915">
        <ele>272.277</ele>
        <time>2017-02-26T10:58:56.603Z</time>
      </trkpt>
      <trkpt lat="43.4751" lon="1.50903">
        <ele>272.421</ele>
        <time>2017-02-26T10:59:03.492Z</time>
      </trkpt>
      <trkpt lat="43.47516" lon="1.50892">
        <ele>272.615</ele>
        <time>2017-02-26T10:59:10.810Z</time>
      </trkpt>
      <trkpt lat="43.47523" lon="1.50883">
        <ele>272.921</ele>
        <time>2017-02-26T10:59:20.438Z</time>
      </trkpt>
      <trkpt lat="43.47525" lon="1.5087">
        <ele>273.33</ele>
        <time>2017-02-26T10:59:31.775Z</time>
      </trkpt>
      <trkpt lat="43.47528" lon="1.50856">
        <ele>273.81</ele>
        <time>2017-02-26T10:59:41.094Z</time>
      </trkpt>
      <trkpt lat="43.47534" lon="1.50846">
        <ele>274.336</ele>
        <time>2017-02-26T10:59:48.751Z</time>
      </trkpt>
      <trkpt lat="43.47538" lon="1.50834">
        <ele>274.863</ele>
        <time>2017-02-26T10:59:56.337Z</time>
      </trkpt>
      <trkpt lat="43.47546" lon="1.50826">
        <ele>275.292</ele>
        <time>2017-02-26T11:00:03.820Z</time>
      </trkpt>
      <trkpt lat="43.47551" lon="1.50814">
        <ele>275.633</ele>
        <time>2017-02-26T11:00:13.339Z</time>
      </trkpt>
      <trkpt lat="43.47552" lon="1.50802">
        <ele>276.058</ele>
        <time>2017-02-26T11:00:23.317Z</time>
      </trkpt>
      <trkpt lat="43.47558" lon="1.50791">
        <ele>276.61</ele>
        <time>2017-02-26T11:00:31.903Z</time>
      </trkpt>
      <trkpt lat="43.47564" lon="1.5078">
        <ele>277.114</ele>
        <time>2017-02-26T11:00:40.026Z</time>
      </trkpt>
      <trkpt lat="43.47566" lon="1.50767">
        <ele>277.507</ele>
        <time>2017-02-26T11:00:48.259Z</time>
      </trkpt>
      <trkpt lat="43.47564" lon="1.50754">
        <ele>277.863</ele>
        <time>2017-02-26T11:00:56.058Z</time>
      </trkpt>
      <trkpt lat="43.47564" lon="1.5074">
        <ele>278.163</ele>
        <time>2017-02-26T11:01:03.683Z</time>
      </trkpt>
      <trkpt lat="43.47564" lon="1.50727">
        <ele>278.358</ele>
        <time>2017-02-26T11:01:10.944Z</time>
      </trkpt>
      <trkpt lat="43.47566" lon="1.50715">
        <ele>278.477</ele>
        <time>2017-02-26T11:01:18.905Z</time>
      </trkpt>
      <trkpt lat="43.47567" lon="1.50702">
        <ele>278.558</ele>
        <time>2017-02-26T11:01:27.601Z</time>
      </trkpt>
      <trkpt lat="43.47572" lon="1.5069">
        <ele>278.599</ele>
        <time>2017-02-26T11:01:37.199Z</time>
      </trkpt>
      <trkpt lat="43.47576" lon="1.50678">
        <ele>278.588</ele>
        <time>2017-02-26T11:01:46.749Z</time>
      </trkpt>
      <trkpt lat="43.47578" lon="1.50665">
        <ele>278.518</ele>
        <time>2017-02-26T11:01:54.291Z</time>
      </trkpt>
      <trkpt lat="43.47582" lon="1.50652">
        <ele>278.425</ele>
        <time>2017-02-26T11:02:02.205Z</time>
      </trkpt>
      <trkpt lat="43.47584" lon="1.5064">
        <ele>278.38</ele>
        <time>2017-02-26T11:02:09.751Z</time>
      </trkpt>
      <trkpt lat="43.47588" lon="1.50627">
        <ele>278.412</ele>
        <time>2017-02-26T11:02:18.439Z</time>
      </trkpt>
      <trkpt lat="43.4759" lon="1.50615">
        <ele>278.513</ele>
        <time>2017-02-26T11:02:26.488Z</time>
      </trkpt>
      <trkpt lat="43.47594" lon="1.50603">
        <ele>278.713</ele>
        <time>2017-02-26T11:02:34.988Z</time>
      </trkpt>
      <trkpt lat="43.47598" lon="1.50589">
        <ele>278.997</ele>
        <time>2017-02-26T11:02:44.598Z</time>
      </trkpt>
      <trkpt lat="43.476" lon="1.50576">
        <ele>279.242</ele>
        <time>2017-02-26T11:02:53.440Z</time>
      </trkpt>
      <trkpt lat="43.47599" lon="1.50562">
        <ele>279.324</ele>
        <time>2017-02-26T11:03:02.139Z</time>
      </trkpt>
      <trkpt lat="43.47598" lon="1.50549">
        <ele>279.212</ele>
        <time>2017-02-26T11:03:11.201Z</time>
      </trkpt>
      <trkpt lat="43.47597" lon="1.50535">
        <ele>278.992</ele>
        <time>2017-02-26T11:03:20.479Z</time>
      </trkpt>
      <trkpt lat="43.47597" lon="1.50522">
        <ele>278.798</ele>
        <time>2017-02-26T11:03:29.787Z</time>
      </trkpt>
      <trkpt lat="43.47597" lon="1.50509">
        <ele>278.65</ele>
        <time>2017-02-26T11:03:38.541Z</time>
      </trkpt>
      <trkpt lat="43.47595" lon="1.50496">
        <ele>278.502</ele>
        <time>2017-02-26T11:03:47.530Z</time>
      </trkpt>
      <trkpt lat="43.47594" lon="1.50483">
        <ele>278.387</ele>
        <time>2017-02-26T11:03:55.618Z</time>
      </trkpt>
      <trkpt lat="43.47592" lon="1.50471">
        <ele>278.278</ele>
        <time>2017-02-26T11:04:03.054Z</time>
      </trkpt>
      <trkpt lat="43.47591" lon="1.50458">
        <ele>278.077</ele>
        <time>2017-02-26T11:04:10.781Z</time>
      </trkpt>
      <trkpt lat="43.47591" lon="1.50446">
        <ele>277.811</ele>
        <time>2017-02-26T11:04:18.712Z</time>
      </trkpt>
      <trkpt lat="43.47591" lon="1.50433">
        <ele>277.572</ele>
        <time>2017-02-26T11:04:27.635Z</time>
      </trkpt>
      <trkpt lat="43.47591" lon="1.50419">
        <ele>277.4</ele>
        <time>2017-02-26T11:04:38.236Z</time>
      </trkpt>
      <trkpt lat="43.47591" lon="1.50406">
        <ele>277.346</ele>
        <time>2017-02-26T11:04:47.253Z</time>
      </trkpt>
      <trkpt lat="43.47591" lon="1.50392">
        <ele>277.422</ele>
        <time>2017-02-26T11:04:55.961Z</time>
      </trkpt>
      <trkpt lat="43.47591" lon="1.50378">
        <ele>277.546</ele>
        <time>2017-02-26T11:05:04.875Z</time>
      </trkpt>
      <trkpt lat="43.47593" lon="1.50365">
        <ele>277.684</ele>
        <time>2017-02-26T11:05:13.306Z</time>
      </trkpt>
      <trkpt lat="43.47593" lon="1.5035">
        <ele>277.898</ele>
        <time>2017-02-26T11:05:21.118Z</time>
      </trkpt>
      <trkpt lat="43.47592" lon="1.50338">
        <ele>278.159</ele>
        <time>2017-02-26T11:05:28.384Z</time>
      </trkpt>
      <trkpt lat="43.47594" lon="1.50324">
        <ele>278.306</ele>
        <time>2017-02-26T11:05:36.926Z</time>
      </trkpt>
      <trkpt lat="43.47592" lon="1.5031">
        <ele>278.266</ele>
        <time>2017-02-26T11:05:45.430Z</time>
      </trkpt>
      <trkpt lat="43.47591" lon="1.50297">
        <ele>278.11</ele>
        <time>2017-02-26T11:05:52.937Z</time>
      </trkpt>
      <trkpt lat="43.4759" lon="1.50285">
        <ele>277.922</ele>
        <time>2017-02-26T11:06:00.334Z</time>
      </trkpt>
      <trkpt lat="43.4759" lon="1.50271">
        <ele>277.742</ele>
        <time>2017-02-26T11:06:08.604Z</time>
      </trkpt>
      <trkpt lat="43.47592" lon="1.50258">
        <ele>277.604</ele>
        <time>2017-02-26T11:06:17.145Z</time>
      </trkpt>
      <trkpt lat="43.47593" lon="1.50246">
        <ele>277.495</ele>
        <time>2017-02-26T11:06:25.278Z</time>
      </trkpt>
      <trkpt lat="43.47596" lon="1.50232">
        <ele>277.389</ele>
        <time>2017-02-26T11:06:33.801Z</time>
      </trkpt>
      <trkpt lat="43.47595" lon="1.50219">
        <ele>277.278</ele>
        <time>2017-02-26T11:06:41.947Z</time>
      </trkpt>
      <trkpt lat="43.47587" lon="1.50212">
        <ele>277.138</ele>
        <time>2017-02-26T11:06:51.155Z</time>
      </trkpt>
      <trkpt lat="43.4758" lon="1.50203">
        <ele>276.891</ele>
        <time>2017-02-26T11:06:59.690Z</time>
      </trkpt>
      <trkpt lat="43.47573" lon="1.50196">
        <ele>276.524</ele>
        <time>2017-02-26T11:07:07.982Z</time>
      </trkpt>
      <trkpt lat="43.47566" lon="1.50188">
        <ele>276.111</ele>
        <time>2017-02-26T11:07:15.999Z</time>
      </trkpt>
      <trkpt lat="43.47556" lon="1.50186">
        <ele>275.754</ele>
        <time>2017-02-26T11:07:25.339Z</time>
      </trkpt>
      <trkpt lat="43.4755" lon="1.50176">
        <ele>275.457</ele>
        <time>2017-02-26T11:07:34.957Z</time>
      </trkpt>
      <trkpt lat="43.47542" lon="1.5017">
        <ele>275.102</ele>
        <time>2017-02-26T11:07:44.827Z</time>
      </trkpt>
      <trkpt lat="43.47533" lon="1.50162">
        <ele>274.602</ele>
        <time>2017-02-26T11:07:54.665Z</time>
      </trkpt>
      <trkpt lat="43.47524" lon="1.50156">
        <ele>274.04</ele>
        <time>2017-02-26T11:08:03.377Z</time>
      </trkpt>
      <trkpt lat="43.47516" lon="1.5015">
        <ele>273.522</ele>
        <time>2017-02-26T11:08:11.114Z</time>
      </trkpt>
      <trkpt lat="43.47509" lon="1.50142">
        <ele>273.086</ele>
        <time>2017-02-26T11:08:19.089Z</time>
      </trkpt>
      <trkpt lat="43.47502" lon="1.50133">
        <ele>272.657</ele>
        <time>2017-02-26T11:08:27.183Z</time>
      </trkpt>
      <trkpt lat="43.47495" lon="1.50123">
        <ele>272.15</ele>
        <time>2017-02-26T11:08:36.800Z</time>
      </trkpt>
      <trkpt lat="43.47488" lon="1.50113">
        <ele>271.554</ele>
        <time>2017-02-26T11:08:45.864Z</time>
      </trkpt>
      <trkpt lat="43.47481" lon="1.50103">
        <ele>270.861</ele>
        <time>2017-02-26T11:08:54.822Z</time>
      </trkpt>
      <trkpt lat="43.47474" lon="1.50096">
        <ele>270.018</ele>
        <time>2017-02-26T11:09:03.663Z</time>
      </trkpt>
      <trkpt lat="43.47469" lon="1.50085">
        <ele>269.058</ele>
        <time>2017-02-26T11:09:15.982Z</time>
      </trkpt>
      <trkpt lat="43.47463" lon="1.50075">
        <ele>267.906</ele>
        <time>2017-02-26T11:09:29.826Z</time>
      </trkpt>
      <trkpt lat="43.47455" lon="1.50067">
        <ele>266.374</ele>
        <time>2017-02-26T11:09:42.356Z</time>
      </trkpt>
      <trkpt lat="43.47449" lon="1.50057">
        <ele>264.549</ele>
        <time>2017-02-26T11:09:51.000Z</time>
      </trkpt>
      <trkpt lat="43.47449" lon="1.50057">
        <ele>262.951</ele>
        <time>2017-02-26T11:10:03.000Z</time>
      </trkpt>
      <trkpt lat="43.47449" lon="1.50057">
        <ele>262.126</ele>
        <time>2017-02-26T11:10:03.100Z</time>
      </trkpt>
      <trkpt lat="43.4744" lon="1.50023">
        <ele>262.096</ele>
        <time>2017-02-26T11:11:59.000Z</time>
      </trkpt>
      <trkpt lat="43.4744" lon="1.50023">
        <ele>262.325</ele>
        <time>2017-02-26T11:12:02.000Z</time>
      </trkpt>
      <trkpt lat="43.4744" lon="1.50023">
        <ele>262.369</ele>
        <time>2017-02-26T11:12:23.823Z</time>
      </trkpt>
      <trkpt lat="43.4745" lon="1.50016">
        <ele>262.077</ele>
        <time>2017-02-26T11:12:38.835Z</time>
      </trkpt>
      <trkpt lat="43.47454" lon="1.50005">
        <ele>262.099</ele>
        <time>2017-02-26T11:12:47.324Z</time>
      </trkpt>
      <trkpt lat="43.47459" lon="1.49992">
        <ele>262.468</ele>
        <time>2017-02-26T11:12:56.473Z</time>
      </trkpt>
      <trkpt lat="43.47462" lon="1.49979">
        <ele>263.088</ele>
        <time>2017-02-26T11:13:04.417Z</time>
      </trkpt>
      <trkpt lat="43.47466" lon="1.49967">
        <ele>263.565</ele>
        <time>2017-02-26T11:13:12.000Z</time>
      </trkpt>
      <trkpt lat="43.47466" lon="1.49967">
        <ele>263.688</ele>
        <time>2017-02-26T11:13:17.000Z</time>
      </trkpt>
      <trkpt lat="43.47466" lon="1.49967">
        <ele>263.583</ele>
        <time>2017-02-26T11:13:20.520Z</time>
      </trkpt>
      <trkpt lat="43.47469" lon="1.49953">
        <ele>263.376</ele>
        <time>2017-02-26T11:13:34.588Z</time>
      </trkpt>
      <trkpt lat="43.47475" lon="1.49943">
        <ele>263.332</ele>
        <time>2017-02-26T11:13:43.155Z</time>
      </trkpt>
      <trkpt lat="43.4748" lon="1.49932">
        <ele>263.25</ele>
        <time>2017-02-26T11:13:51.118Z</time>
      </trkpt>
      <trkpt lat="43.47484" lon="1.4992">
        <ele>263.126</ele>
        <time>2017-02-26T11:13:59.735Z</time>
      </trkpt>
      <trkpt lat="43.47489" lon="1.49908">
        <ele>262.974</ele>
        <time>2017-02-26T11:14:08.979Z</time>
      </trkpt>
      <trkpt lat="43.47496" lon="1.49896">
        <ele>262.703</ele>
        <time>2017-02-26T11:14:17.695Z</time>
      </trkpt>
      <trkpt lat="43.47502" lon="1.49886">
        <ele>262.304</ele>
        <time>2017-02-26T11:14:24.653Z</time>
      </trkpt>
      <trkpt lat="43.47503" lon="1.49873">
        <ele>261.965</ele>
        <time>2017-02-26T11:14:31.859Z</time>
      </trkpt>
      <trkpt lat="43.47498" lon="1.49862">
        <ele>261.681</ele>
        <time>2017-02-26T11:14:40.011Z</time>
      </trkpt>
      <trkpt lat="43.47493" lon="1.49852">
        <ele>261.214</ele>
        <time>2017-02-26T11:14:48.000Z</time>
      </trkpt>
      <trkpt lat="43.47493" lon="1.49852">
        <ele>260.633</ele>
        <time>2017-02-26T11:14:50.000Z</time>
      </trkpt>
      <trkpt lat="43.47493" lon="1.49852">
        <ele>260.252</ele>
        <time>2017-02-26T11:15:02.820Z</time>
      </trkpt>
      <trkpt lat="43.47486" lon="1.49862">
        <ele>260.231</ele>
        <time>2017-02-26T11:15:23.613Z</time>
      </trkpt>
      <trkpt lat="43.47477" lon="1.49867">
        <ele>260.028</ele>
        <time>2017-02-26T11:15:35.640Z</time>
      </trkpt>
      <trkpt lat="43.47468" lon="1.49861">
        <ele>259.144</ele>
        <time>2017-02-26T11:15:46.236Z</time>
      </trkpt>
      <trkpt lat="43.47464" lon="1.49849">
        <ele>257.668</ele>
        <time>2017-02-26T11:15:52.376Z</time>
      </trkpt>
      <trkpt lat="43.47461" lon="1.49837">
        <ele>256.118</ele>
        <time>2017-02-26T11:15:57.803Z</time>
      </trkpt>
      <trkpt lat="43.47455" lon="1.49827">
        <ele>254.938</ele>
        <time>2017-02-26T11:16:03.802Z</time>
      </trkpt>
      <trkpt lat="43.47448" lon="1.49819">
        <ele>254.211</ele>
        <time>2017-02-26T11:16:10.792Z</time>
      </trkpt>
      <trkpt lat="43.47439" lon="1.49815">
        <ele>253.641</ele>
        <time>2017-02-26T11:16:18.293Z</time>
      </trkpt>
      <trkpt lat="43.4743" lon="1.49816">
        <ele>252.89</ele>
        <time>2017-02-26T11:16:26.546Z</time>
      </trkpt>
      <trkpt lat="43.47421" lon="1.49812">
        <ele>251.864</ele>
        <time>2017-02-26T11:16:35.227Z</time>
      </trkpt>
      <trkpt lat="43.47411" lon="1.49807">
        <ele>250.788</ele>
        <time>2017-02-26T11:16:45.421Z</time>
      </trkpt>
      <trkpt lat="43.47402" lon="1.49806">
        <ele>249.831</ele>
        <time>2017-02-26T11:16:53.814Z</time>
      </trkpt>
      <trkpt lat="43.47393" lon="1.49801">
        <ele>248.874</ele>
        <time>2017-02-26T11:17:00.819Z</time>
      </trkpt>
      <trkpt lat="43.47383" lon="1.49795">
        <ele>247.876</ele>
        <time>2017-02-26T11:17:08.996Z</time>
      </trkpt>
      <trkpt lat="43.47378" lon="1.49784">
        <ele>247.033</ele>
        <time>2017-02-26T11:17:18.483Z</time>
      </trkpt>
      <trkpt lat="43.4737" lon="1.49777">
        <ele>246.472</ele>
        <time>2017-02-26T11:17:29.092Z</time>
      </trkpt>
      <trkpt lat="43.4736" lon="1.49777">
        <ele>246.068</ele>
        <time>2017-02-26T11:17:43.157Z</time>
      </trkpt>
      <trkpt lat="43.47353" lon="1.49766">
        <ele>245.696</ele>
        <time>2017-02-26T11:17:55.529Z</time>
      </trkpt>
      <trkpt lat="43.47345" lon="1.49758">
        <ele>245.425</ele>
        <time>2017-02-26T11:18:05.000Z</time>
      </trkpt>
      <trkpt lat="43.47345" lon="1.49758">
        <ele>245.287</ele>
        <time>2017-02-26T11:18:12.000Z</time>
      </trkpt>
    </trkseg>
  </trk>
</gpx>